Wetterdaten: Samstag, 21.01.2023
Datum Zeit Temp. Aussen Temp. o. S. Temp +5cm Feuchte Auss Luftdruck Regen Sonnenschein Regendauer Solar Windben Empfang
21.01.2023 00:00 -1,1 C -2,2 C -3,9 C 94 % 1023,7 hPa 0,0 l/m 0 min 0 min 0 W/m 3,2 km/h (1 Bft) 97,87 %
21.01.2023 00:02 -1,2 C -2,2 C -3,9 C 94 % 1023,8 hPa 0,0 l/m 0 min 0 min 0 W/m 3,2 km/h (1 Bft) 97,37 %
21.01.2023 00:04 -1,2 C -2,2 C -3,9 C 94 % 1023,9 hPa 0,0 l/m 0 min 0 min 0 W/m 3,2 km/h (1 Bft) 97,87 %
21.01.2023 00:07 -1,2 C -2,2 C -3,9 C 94 % 1024,0 hPa 0,0 l/m 0 min 0 min 0 W/m 6,4 km/h (2 Bft) 94,37 %
21.01.2023 00:08 -1,2 C -2,2 C -3,9 C 94 % 1024,0 hPa 0,0 l/m 0 min 0 min 0 W/m 3,2 km/h (1 Bft) 91,67 %
21.01.2023 00:12 -1,2 C -2,2 C -3,9 C 94 % 1023,9 hPa 0,0 l/m 0 min 0 min 0 W/m 3,2 km/h (1 Bft) 100,00 %
21.01.2023 00:14 -1,3 C -2,2 C -3,9 C 94 % 1023,9 hPa 0,0 l/m 0 min 0 min 0 W/m 3,2 km/h (1 Bft) 100,00 %
21.01.2023 00:16 -1,3 C -2,2 C -3,9 C 94 % 1024,0 hPa 0,0 l/m 0 min 0 min 0 W/m 3,2 km/h (1 Bft) 93,62 %
21.01.2023 00:18 -1,3 C -2,2 C -3,9 C 94 % 1024,0 hPa 0,0 l/m 0 min 0 min 0 W/m 3,2 km/h (1 Bft) 91,89 %
21.01.2023 00:20 -1,3 C -2,2 C -3,9 C 94 % 1024,1 hPa 0,0 l/m 0 min 0 min 0 W/m 3,2 km/h (1 Bft) 97,92 %
21.01.2023 00:22 -1,3 C -2,2 C -4,4 C 94 % 1024,1 hPa 0,0 l/m 0 min 0 min 0 W/m 3,2 km/h (1 Bft) 95,74 %
21.01.2023 00:24 -1,3 C -2,2 C -4,4 C 94 % 1024,1 hPa 0,0 l/m 0 min 0 min 0 W/m 3,2 km/h (1 Bft) 95,74 %
21.01.2023 00:26 -1,3 C -2,2 C -4,4 C 94 % 1024,2 hPa 0,0 l/m 0 min 0 min 0 W/m 6,4 km/h (2 Bft) 95,74 %
21.01.2023 00:28 -1,4 C -2,2 C -4,4 C 94 % 1024,3 hPa 0,0 l/m 0 min 0 min 0 W/m 3,2 km/h (1 Bft) 95,65 %
21.01.2023 00:30 -1,4 C -2,2 C -4,4 C 94 % 1024,3 hPa 0,0 l/m 0 min 0 min 0 W/m 6,4 km/h (2 Bft) 97,87 %
21.01.2023 00:32 -1,4 C -2,2 C -4,4 C 94 % 1024,3 hPa 0,0 l/m 0 min 0 min 0 W/m 6,4 km/h (2 Bft) 95,74 %
21.01.2023 00:34 -1,4 C -2,2 C -4,4 C 94 % 1024,4 hPa 0,0 l/m 0 min 0 min 0 W/m 6,4 km/h (2 Bft) 97,87 %
21.01.2023 00:36 -1,4 C -2,2 C -4,4 C 94 % 1024,3 hPa 0,0 l/m 0 min 0 min 0 W/m 6,4 km/h (2 Bft) 97,87 %
21.01.2023 00:38 -1,4 C -2,2 C -3,9 C 94 % 1024,4 hPa 0,0 l/m 0 min 0 min 0 W/m 6,4 km/h (2 Bft) 93,62 %
21.01.2023 00:40 -1,4 C -2,2 C -3,9 C 94 % 1024,4 hPa 0,0 l/m 0 min 0 min 0 W/m 6,4 km/h (2 Bft) 95,74 %
21.01.2023 00:42 -1,4 C -2,2 C -3,9 C 95 % 1024,4 hPa 0,0 l/m 0 min 0 min 0 W/m 9,7 km/h (2 Bft) 93,48 %
21.01.2023 00:44 -1,4 C -2,2 C -3,9 C 95 % 1024,5 hPa 0,0 l/m 0 min 0 min 0 W/m 9,7 km/h (2 Bft) 97,87 %
21.01.2023 00:46 -1,4 C -2,2 C -3,9 C 95 % 1024,5 hPa 0,0 l/m 0 min 0 min 0 W/m 0,0 km/h (0 Bft) 97,87 %
21.01.2023 00:48 -1,4 C -2,2 C -3,9 C 95 % 1024,6 hPa 0,0 l/m 0 min 0 min 0 W/m 6,4 km/h (2 Bft) 93,62 %
21.01.2023 00:50 -1,4 C -2,2 C -3,9 C 95 % 1024,6 hPa 0,0 l/m 0 min 0 min 0 W/m 9,7 km/h (2 Bft) 100,00 %
21.01.2023 00:52 -1,4 C -2,2 C -3,9 C 95 % 1024,6 hPa 0,0 l/m 0 min 0 min 0 W/m 6,4 km/h (2 Bft) 97,87 %
21.01.2023 00:54 -1,4 C -2,2 C -3,9 C 95 % 1024,6 hPa 0,0 l/m 0 min 0 min 0 W/m 12,9 km/h (3 Bft) 97,87 %
21.01.2023 00:56 -1,4 C -2,2 C -3,9 C 95 % 1024,7 hPa 0,0 l/m 0 min 0 min 0 W/m 12,9 km/h (3 Bft) 97,83 %
21.01.2023 00:58 -1,4 C -2,2 C -3,9 C 95 % 1024,7 hPa 0,0 l/m 0 min 0 min 0 W/m 6,4 km/h (2 Bft) 93,62 %
21.01.2023 01:00 -1,4 C -2,2 C -3,9 C 95 % 1024,7 hPa 0,0 l/m 0 min 0 min 0 W/m 6,4 km/h (2 Bft) 95,74 %
21.01.2023 01:02 -1,4 C -2,2 C -3,9 C 95 % 1024,8 hPa 0,0 l/m 0 min 0 min 0 W/m 12,9 km/h (3 Bft) 95,74 %
21.01.2023 01:04 -1,4 C -2,2 C -3,9 C 95 % 1024,8 hPa 0,0 l/m 0 min 0 min 0 W/m 12,9 km/h (3 Bft) 89,36 %
21.01.2023 01:06 -1,4 C -2,2 C -3,9 C 95 % 1024,9 hPa 0,0 l/m 0 min 0 min 0 W/m 12,9 km/h (3 Bft) 95,74 %
21.01.2023 01:08 -1,4 C -2,2 C -3,9 C 95 % 1024,9 hPa 0,0 l/m 0 min 0 min 0 W/m 9,7 km/h (2 Bft) 95,65 %
21.01.2023 01:10 -1,4 C -2,2 C -3,9 C 95 % 1025,0 hPa 0,0 l/m 0 min 0 min 0 W/m 3,2 km/h (1 Bft) 91,49 %
21.01.2023 01:12 -1,4 C -2,2 C -3,9 C 95 % 1025,0 hPa 0,0 l/m 0 min 0 min 0 W/m 3,2 km/h (1 Bft) 93,62 %
21.01.2023 01:14 -1,4 C -2,2 C -3,9 C 95 % 1024,9 hPa 0,0 l/m 0 min 0 min 0 W/m 3,2 km/h (1 Bft) 95,74 %
21.01.2023 01:16 -1,4 C -2,2 C -3,9 C 95 % 1025,0 hPa 0,0 l/m 0 min 0 min 0 W/m 3,2 km/h (1 Bft) 93,62 %
21.01.2023 01:18 -1,4 C -2,2 C -4,4 C 95 % 1025,0 hPa 0,0 l/m 0 min 0 min 0 W/m 3,2 km/h (1 Bft) 95,74 %
21.01.2023 01:20 -1,5 C -2,2 C -4,4 C 95 % 1025,0 hPa 0,0 l/m 0 min 0 min 0 W/m 3,2 km/h (1 Bft) 95,74 %
21.01.2023 01:22 -1,4 C -2,2 C -4,4 C 95 % 1025,0 hPa 0,0 l/m 0 min 0 min 0 W/m 3,2 km/h (1 Bft) 95,65 %
21.01.2023 01:24 -1,5 C -2,2 C -3,9 C 95 % 1025,0 hPa 0,0 l/m 0 min 0 min 0 W/m 12,9 km/h (3 Bft) 97,87 %
21.01.2023 01:26 -1,5 C -2,2 C -3,9 C 95 % 1025,0 hPa 0,0 l/m 0 min 0 min 0 W/m 16,1 km/h (3 Bft) 95,74 %
21.01.2023 01:28 -1,5 C -2,2 C -3,9 C 95 % 1025,1 hPa 0,0 l/m 0 min 0 min 0 W/m 6,4 km/h (2 Bft) 95,74 %
21.01.2023 01:30 -1,5 C -2,2 C -3,9 C 95 % 1025,1 hPa 0,0 l/m 0 min 0 min 0 W/m 9,7 km/h (2 Bft) 100,00 %
21.01.2023 01:32 -1,5 C -2,2 C -3,9 C 95 % 1025,1 hPa 0,0 l/m 0 min 0 min 0 W/m 6,4 km/h (2 Bft) 100,00 %
21.01.2023 01:34 -1,5 C -2,2 C -3,9 C 95 % 1025,1 hPa 0,0 l/m 0 min 0 min 0 W/m 9,7 km/h (2 Bft) 100,00 %
21.01.2023 01:36 -1,5 C -2,2 C -4,4 C 95 % 1025,2 hPa 0,0 l/m 0 min 0 min 0 W/m 6,4 km/h (2 Bft) 100,00 %
21.01.2023 01:38 -1,6 C -2,2 C -4,4 C 95 % 1025,2 hPa 0,0 l/m 0 min 0 min 0 W/m 6,4 km/h (2 Bft) 100,00 %
21.01.2023 01:40 -1,6 C -2,2 C -4,4 C 95 % 1025,2 hPa 0,0 l/m 0 min 0 min 0 W/m 6,4 km/h (2 Bft) 100,00 %
21.01.2023 01:42 -1,6 C -2,2 C -4,4 C 95 % 1025,3 hPa 0,0 l/m 0 min 0 min 0 W/m 6,4 km/h (2 Bft) 100,00 %
21.01.2023 01:44 -1,6 C -2,2 C -4,4 C 95 % 1025,3 hPa 0,0 l/m 0 min 0 min 0 W/m 6,4 km/h (2 Bft) 100,00 %
21.01.2023 01:46 -1,6 C -2,2 C -4,4 C 95 % 1025,3 hPa 0,0 l/m 0 min 0 min 0 W/m 12,9 km/h (3 Bft) 100,00 %
21.01.2023 01:48 -1,6 C -2,2 C -4,4 C 95 % 1025,4 hPa 0,0 l/m 0 min 0 min 0 W/m 3,2 km/h (1 Bft) 100,00 %
21.01.2023 01:50 -1,6 C -2,2 C -4,4 C 95 % 1025,4 hPa 0,0 l/m 0 min 0 min 0 W/m 3,2 km/h (1 Bft) 100,00 %
21.01.2023 01:52 -1,6 C -2,2 C -3,9 C 95 % 1025,4 hPa 0,0 l/m 0 min 0 min 0 W/m 9,7 km/h (2 Bft) 97,87 %
21.01.2023 01:54 -1,6 C -2,2 C -4,4 C 95 % 1025,4 hPa 0,0 l/m 0 min 0 min 0 W/m 6,4 km/h (2 Bft) 100,00 %
21.01.2023 01:56 -1,7 C -2,2 C -4,4 C 95 % 1025,4 hPa 0,0 l/m 0 min 0 min 0 W/m 6,4 km/h (2 Bft) 100,00 %
21.01.2023 01:58 -1,7 C -2,2 C -4,4 C 95 % 1025,5 hPa 0,0 l/m 0 min 0 min 0 W/m 9,7 km/h (2 Bft) 100,00 %
21.01.2023 02:00 -1,6 C -2,2 C -3,9 C 95 % 1025,5 hPa 0,0 l/m 0 min 0 min 0 W/m 3,2 km/h (1 Bft) 100,00 %
21.01.2023 02:02 -1,6 C -2,2 C -3,9 C 95 % 1025,5 hPa 0,0 l/m 0 min 0 min 0 W/m 6,4 km/h (2 Bft) 100,00 %
21.01.2023 02:04 -1,6 C -2,2 C -4,4 C 95 % 1025,6 hPa 0,0 l/m 0 min 0 min 0 W/m 9,7 km/h (2 Bft) 100,00 %
21.01.2023 02:06 -1,6 C -2,2 C -3,9 C 95 % 1025,7 hPa 0,0 l/m 0 min 0 min 0 W/m 12,9 km/h (3 Bft) 100,00 %
21.01.2023 02:08 -1,6 C -2,2 C -3,9 C 95 % 1025,6 hPa 0,0 l/m 0 min 0 min 0 W/m 6,4 km/h (2 Bft) 100,00 %
21.01.2023 02:10 -1,6 C -2,2 C -3,9 C 95 % 1025,7 hPa 0,0 l/m 0 min 0 min 0 W/m 9,7 km/h (2 Bft) 100,00 %
21.01.2023 02:17 -1,7 C -2,2 C -3,9 C 95 % 1025,8 hPa 0,0 l/m 0 min 0 min 0 W/m 9,7 km/h (2 Bft) 98,15 %
21.01.2023 02:18 -1,7 C -2,2 C -3,9 C 95 % 1025,8 hPa 0,0 l/m 0 min 0 min 0 W/m 3,2 km/h (1 Bft) 100,00 %
21.01.2023 02:20 -1,7 C -2,2 C -3,9 C 95 % 1025,9 hPa 0,0 l/m 0 min 0 min 0 W/m 9,7 km/h (2 Bft) 100,00 %
21.01.2023 02:22 -1,7 C -2,2 C -4,4 C 95 % 1025,9 hPa 0,0 l/m 0 min 0 min 0 W/m 0,0 km/h (0 Bft) 100,00 %
21.01.2023 02:24 -1,7 C -2,8 C -4,4 C 95 % 1025,9 hPa 0,0 l/m 0 min 0 min 0 W/m 3,2 km/h (1 Bft) 97,87 %
21.01.2023 02:26 -1,7 C -2,8 C -4,4 C 95 % 1026,0 hPa 0,0 l/m 0 min 0 min 0 W/m 3,2 km/h (1 Bft) 100,00 %
21.01.2023 02:28 -1,7 C -2,8 C -4,4 C 95 % 1026,0 hPa 0,0 l/m 0 min 0 min 0 W/m 12,9 km/h (3 Bft) 100,00 %
21.01.2023 02:30 -1,7 C -2,2 C -4,4 C 95 % 1026,0 hPa 0,0 l/m 0 min 0 min 0 W/m 16,1 km/h (3 Bft) 100,00 %
21.01.2023 02:32 -1,7 C -2,2 C -4,4 C 95 % 1026,0 hPa 0,0 l/m 0 min 0 min 0 W/m 3,2 km/h (1 Bft) 100,00 %
21.01.2023 02:34 -1,7 C -2,2 C -4,4 C 95 % 1026,1 hPa 0,0 l/m 0 min 0 min 0 W/m 6,4 km/h (2 Bft) 100,00 %
21.01.2023 02:36 -1,7 C -2,2 C -4,4 C 95 % 1026,1 hPa 0,0 l/m 0 min 0 min 0 W/m 9,7 km/h (2 Bft) 100,00 %
21.01.2023 02:38 -1,7 C -2,2 C -4,4 C 95 % 1026,1 hPa 0,0 l/m 0 min 0 min 0 W/m 6,4 km/h (2 Bft) 100,00 %
21.01.2023 02:40 -1,7 C -2,8 C -4,4 C 95 % 1026,2 hPa 0,0 l/m 0 min 0 min 0 W/m 3,2 km/h (1 Bft) 65,22 %
21.01.2023 02:42 -1,7 C -2,8 C -4,4 C 95 % 1026,2 hPa 0,0 l/m 0 min 0 min 0 W/m 3,2 km/h (1 Bft) 85,19 %
21.01.2023 02:44 -1,7 C -2,8 C -4,4 C 95 % 1026,2 hPa 0,0 l/m 0 min 0 min 0 W/m 3,2 km/h (1 Bft) 100,00 %
21.01.2023 02:46 -1,7 C -2,8 C -4,4 C 95 % 1026,2 hPa 0,0 l/m 0 min 0 min 0 W/m 6,4 km/h (2 Bft) 97,87 %
21.01.2023 02:48 -1,8 C -2,8 C -4,4 C 95 % 1026,2 hPa 0,0 l/m 0 min 0 min 0 W/m 6,4 km/h (2 Bft) 97,87 %
21.01.2023 02:50 -1,8 C -2,8 C -4,4 C 95 % 1026,3 hPa 0,0 l/m 0 min 0 min 0 W/m 3,2 km/h (1 Bft) 95,74 %
21.01.2023 02:52 -1,8 C -2,8 C -4,4 C 95 % 1026,3 hPa 0,0 l/m 0 min 0 min 0 W/m 6,4 km/h (2 Bft) 92,86 %
21.01.2023 02:54 -1,8 C -2,8 C -4,4 C 95 % 1026,3 hPa 0,0 l/m 0 min 0 min 0 W/m 6,4 km/h (2 Bft) 97,83 %
21.01.2023 02:56 -1,8 C -2,8 C -4,4 C 95 % 1026,3 hPa 0,0 l/m 0 min 0 min 0 W/m 6,4 km/h (2 Bft) 95,74 %
21.01.2023 02:58 -1,8 C -2,8 C -4,4 C 95 % 1026,3 hPa 0,0 l/m 0 min 0 min 0 W/m 6,4 km/h (2 Bft) 95,74 %
21.01.2023 03:00 -1,8 C -2,8 C -4,4 C 95 % 1026,3 hPa 0,0 l/m 0 min 0 min 0 W/m 6,4 km/h (2 Bft) 91,49 %
21.01.2023 03:02 -1,8 C -2,8 C -4,4 C 95 % 1026,3 hPa 0,0 l/m 0 min 0 min 0 W/m 9,7 km/h (2 Bft) 93,62 %
21.01.2023 03:04 -1,8 C -2,8 C -4,4 C 95 % 1026,4 hPa 0,0 l/m 0 min 0 min 0 W/m 6,4 km/h (2 Bft) 93,62 %
21.01.2023 03:06 -1,8 C -2,8 C -4,4 C 95 % 1026,4 hPa 0,0 l/m 0 min 0 min 0 W/m 3,2 km/h (1 Bft) 95,74 %
21.01.2023 03:08 -1,8 C -2,8 C -4,4 C 95 % 1026,4 hPa 0,0 l/m 0 min 0 min 0 W/m 3,2 km/h (1 Bft) 91,67 %
21.01.2023 03:10 -1,8 C -2,8 C -4,4 C 95 % 1026,4 hPa 0,0 l/m 0 min 0 min 0 W/m 6,4 km/h (2 Bft) 93,48 %
21.01.2023 03:12 -1,8 C -2,8 C -4,4 C 95 % 1026,5 hPa 0,0 l/m 0 min 0 min 0 W/m 6,4 km/h (2 Bft) 93,62 %
21.01.2023 03:14 -1,8 C -2,8 C -4,4 C 95 % 1026,6 hPa 0,0 l/m 0 min 0 min 0 W/m 0,0 km/h (0 Bft) 95,74 %
21.01.2023 03:16 -1,8 C -2,8 C -4,4 C 95 % 1026,7 hPa 0,0 l/m 0 min 0 min 0 W/m 6,4 km/h (2 Bft) 93,62 %
21.01.2023 03:18 -1,8 C -2,8 C -4,4 C 96 % 1026,7 hPa 0,0 l/m 0 min 0 min 0 W/m 6,4 km/h (2 Bft) 93,62 %
21.01.2023 03:20 -1,8 C -2,8 C -4,4 C 96 % 1026,8 hPa 0,0 l/m 0 min 0 min 0 W/m 6,4 km/h (2 Bft) 95,74 %
21.01.2023 03:22 -1,8 C -2,8 C -4,4 C 96 % 1026,8 hPa 0,0 l/m 0 min 0 min 0 W/m 6,4 km/h (2 Bft) 93,62 %
21.01.2023 03:24 -1,9 C -2,8 C -4,4 C 96 % 1026,8 hPa 0,0 l/m 0 min 0 min 0 W/m 6,4 km/h (2 Bft) 95,65 %
21.01.2023 03:26 -1,9 C -2,8 C -4,4 C 96 % 1026,8 hPa 0,0 l/m 0 min 0 min 0 W/m 6,4 km/h (2 Bft) 95,74 %
21.01.2023 03:28 -1,9 C -2,8 C -4,4 C 96 % 1026,8 hPa 0,0 l/m 0 min 0 min 0 W/m 3,2 km/h (1 Bft) 93,62 %
21.01.2023 03:30 -1,9 C -2,8 C -4,4 C 96 % 1026,9 hPa 0,0 l/m 0 min 0 min 0 W/m 3,2 km/h (1 Bft) 95,74 %
21.01.2023 03:32 -1,9 C -2,8 C -4,4 C 96 % 1026,9 hPa 0,0 l/m 0 min 0 min 0 W/m 3,2 km/h (1 Bft) 95,74 %
21.01.2023 03:34 -1,9 C -2,8 C -4,4 C 95 % 1026,9 hPa 0,0 l/m 0 min 0 min 0 W/m 9,7 km/h (2 Bft) 91,49 %
21.01.2023 03:36 -1,9 C -2,8 C -4,4 C 95 % 1026,9 hPa 0,0 l/m 0 min 0 min 0 W/m 9,7 km/h (2 Bft) 91,49 %
21.01.2023 03:38 -1,9 C -2,8 C -4,4 C 95 % 1027,0 hPa 0,0 l/m 0 min 0 min 0 W/m 12,9 km/h (3 Bft) 95,65 %
21.01.2023 03:40 -1,9 C -2,8 C -4,4 C 95 % 1026,9 hPa 0,0 l/m 0 min 0 min 0 W/m 12,9 km/h (3 Bft) 95,74 %
21.01.2023 03:42 -1,9 C -2,8 C -4,4 C 95 % 1027,0 hPa 0,0 l/m 0 min 0 min 0 W/m 6,4 km/h (2 Bft) 95,74 %
21.01.2023 03:44 -1,9 C -2,8 C -4,4 C 95 % 1027,0 hPa 0,0 l/m 0 min 0 min 0 W/m 12,9 km/h (3 Bft) 97,87 %
21.01.2023 03:46 -1,9 C -2,8 C -4,4 C 95 % 1027,1 hPa 0,0 l/m 0 min 0 min 0 W/m 3,2 km/h (1 Bft) 100,00 %
21.01.2023 03:48 -2,0 C -2,8 C -4,4 C 95 % 1027,1 hPa 0,0 l/m 0 min 0 min 0 W/m 6,4 km/h (2 Bft) 97,87 %
21.01.2023 03:50 -2,0 C -2,8 C -4,4 C 96 % 1027,1 hPa 0,0 l/m 0 min 0 min 0 W/m 6,4 km/h (2 Bft) 97,87 %
21.01.2023 03:52 -2,0 C -2,8 C -4,4 C 96 % 1027,1 hPa 0,0 l/m 0 min 0 min 0 W/m 3,2 km/h (1 Bft) 97,83 %
21.01.2023 03:54 -2,0 C -2,8 C -4,4 C 96 % 1027,2 hPa 0,0 l/m 0 min 0 min 0 W/m 6,4 km/h (2 Bft) 52,27 %
21.01.2023 03:56 -2,0 C -2,8 C -4,4 C 96 % 1027,2 hPa 0,0 l/m 0 min 0 min 0 W/m 9,7 km/h (2 Bft) 100,00 %
21.01.2023 03:58 -2,0 C -2,8 C -4,4 C 96 % 1027,2 hPa 0,0 l/m 0 min 0 min 0 W/m 9,7 km/h (2 Bft) 97,87 %
21.01.2023 04:00 -2,0 C -2,8 C -4,4 C 96 % 1027,2 hPa 0,0 l/m 0 min 0 min 0 W/m 9,7 km/h (2 Bft) 97,87 %
21.01.2023 04:02 -2,0 C -2,8 C -4,4 C 96 % 1027,3 hPa 0,0 l/m 0 min 0 min 0 W/m 6,4 km/h (2 Bft) 100,00 %
21.01.2023 04:04 -2,0 C -2,8 C -4,4 C 96 % 1027,3 hPa 0,0 l/m 0 min 0 min 0 W/m 6,4 km/h (2 Bft) 100,00 %
21.01.2023 04:06 -2,0 C -2,8 C -4,4 C 96 % 1027,3 hPa 0,0 l/m 0 min 0 min 0 W/m 6,4 km/h (2 Bft) 98,28 %
21.01.2023 04:08 -2,0 C -2,8 C -4,4 C 96 % 1027,4 hPa 0,0 l/m 0 min 0 min 0 W/m 3,2 km/h (1 Bft) 100,00 %
21.01.2023 04:10 -2,0 C -2,8 C -4,4 C 96 % 1027,4 hPa 0,0 l/m 0 min 0 min 0 W/m 3,2 km/h (1 Bft) 100,00 %
21.01.2023 04:12 -2,0 C -2,8 C -4,4 C 96 % 1027,3 hPa 0,0 l/m 0 min 0 min 0 W/m 3,2 km/h (1 Bft) 100,00 %
21.01.2023 04:14 -2,0 C -2,8 C -4,4 C 96 % 1027,4 hPa 0,0 l/m 0 min 0 min 0 W/m 6,4 km/h (2 Bft) 97,87 %
21.01.2023 04:16 -2,0 C -2,8 C -4,4 C 96 % 1027,4 hPa 0,0 l/m 0 min 0 min 0 W/m 6,4 km/h (2 Bft) 97,87 %
21.01.2023 04:18 -2,1 C -2,8 C -4,4 C 96 % 1027,5 hPa 0,0 l/m 0 min 0 min 0 W/m 6,4 km/h (2 Bft) 100,00 %
21.01.2023 04:20 -2,1 C -2,8 C -4,4 C 96 % 1027,5 hPa 0,0 l/m 0 min 0 min 0 W/m 6,4 km/h (2 Bft) 100,00 %
21.01.2023 04:22 -2,1 C -2,8 C -4,4 C 96 % 1027,5 hPa 0,0 l/m 0 min 0 min 0 W/m 3,2 km/h (1 Bft) 100,00 %
21.01.2023 04:24 -2,1 C -3,3 C -4,4 C 96 % 1027,5 hPa 0,0 l/m 0 min 0 min 0 W/m 3,2 km/h (1 Bft) 100,00 %
21.01.2023 04:26 -2,1 C -2,8 C -4,4 C 96 % 1027,5 hPa 0,0 l/m 0 min 0 min 0 W/m 9,7 km/h (2 Bft) 97,87 %
21.01.2023 04:28 -2,1 C -2,8 C -4,4 C 96 % 1027,5 hPa 0,0 l/m 0 min 0 min 0 W/m 3,2 km/h (1 Bft) 100,00 %
21.01.2023 04:30 -2,1 C -2,8 C -4,4 C 96 % 1027,5 hPa 0,0 l/m 0 min 0 min 0 W/m 16,1 km/h (3 Bft) 97,96 %
21.01.2023 04:32 -2,1 C -2,8 C -4,4 C 96 % 1027,5 hPa 0,0 l/m 0 min 0 min 0 W/m 12,9 km/h (3 Bft) 97,87 %
21.01.2023 04:34 -2,1 C -2,8 C -4,4 C 96 % 1027,5 hPa 0,0 l/m 0 min 0 min 0 W/m 9,7 km/h (2 Bft) 98,11 %
21.01.2023 04:36 -2,1 C -2,8 C -4,4 C 96 % 1027,5 hPa 0,0 l/m 0 min 0 min 0 W/m 6,4 km/h (2 Bft) 97,87 %
21.01.2023 04:38 -2,1 C -2,8 C -4,4 C 96 % 1027,5 hPa 0,0 l/m 0 min 0 min 0 W/m 9,7 km/h (2 Bft) 97,37 %
21.01.2023 04:40 -2,1 C -2,8 C -4,4 C 96 % 1027,6 hPa 0,0 l/m 0 min 0 min 0 W/m 9,7 km/h (2 Bft) 97,87 %
21.01.2023 04:42 -2,1 C -2,8 C -4,4 C 96 % 1027,5 hPa 0,0 l/m 0 min 0 min 0 W/m 12,9 km/h (3 Bft) 97,87 %
21.01.2023 04:44 -2,1 C -2,8 C -4,4 C 96 % 1027,6 hPa 0,0 l/m 0 min 0 min 0 W/m 6,4 km/h (2 Bft) 97,87 %
21.01.2023 04:46 -2,1 C -2,8 C -4,4 C 96 % 1027,6 hPa 0,0 l/m 0 min 0 min 0 W/m 6,4 km/h (2 Bft) 97,83 %
21.01.2023 04:48 -2,1 C -2,8 C -4,4 C 96 % 1027,6 hPa 0,0 l/m 0 min 0 min 0 W/m 16,1 km/h (3 Bft) 97,87 %
21.01.2023 04:50 -2,1 C -2,8 C -4,4 C 96 % 1027,6 hPa 0,0 l/m 0 min 0 min 0 W/m 16,1 km/h (3 Bft) 97,87 %
21.01.2023 04:52 -2,1 C -2,8 C -4,4 C 96 % 1027,6 hPa 0,0 l/m 0 min 0 min 0 W/m 6,4 km/h (2 Bft) 97,87 %
21.01.2023 04:54 -2,1 C -2,8 C -4,4 C 96 % 1027,6 hPa 0,0 l/m 0 min 0 min 0 W/m 9,7 km/h (2 Bft) 95,74 %
21.01.2023 04:56 -2,1 C -2,8 C -4,4 C 96 % 1027,6 hPa 0,0 l/m 0 min 0 min 0 W/m 12,9 km/h (3 Bft) 97,87 %
21.01.2023 04:58 -2,1 C -2,8 C -4,4 C 96 % 1027,6 hPa 0,0 l/m 0 min 0 min 0 W/m 9,7 km/h (2 Bft) 97,87 %
21.01.2023 05:00 -2,1 C -2,8 C -4,4 C 96 % 1027,7 hPa 0,0 l/m 0 min 0 min 0 W/m 9,7 km/h (2 Bft) 100,00 %
21.01.2023 05:02 -2,1 C -2,8 C -4,4 C 96 % 1027,6 hPa 0,0 l/m 0 min 0 min 0 W/m 9,7 km/h (2 Bft) 100,00 %
21.01.2023 05:04 -2,1 C -2,8 C -4,4 C 96 % 1027,6 hPa 0,0 l/m 0 min 0 min 0 W/m 3,2 km/h (1 Bft) 97,87 %
21.01.2023 05:06 -2,1 C -2,8 C -4,4 C 96 % 1027,6 hPa 0,0 l/m 0 min 0 min 0 W/m 9,7 km/h (2 Bft) 98,33 %
21.01.2023 05:11 -2,1 C -2,8 C -4,4 C 96 % 1027,7 hPa 0,0 l/m 0 min 0 min 0 W/m 12,9 km/h (3 Bft) 100,00 %
21.01.2023 05:12 -2,1 C -2,8 C -4,4 C 96 % 1027,7 hPa 0,0 l/m 0 min 0 min 0 W/m 6,4 km/h (2 Bft) 100,00 %
21.01.2023 05:14 -2,1 C -2,8 C -4,4 C 96 % 1027,7 hPa 0,0 l/m 0 min 0 min 0 W/m 6,4 km/h (2 Bft) 100,00 %
21.01.2023 05:16 -2,2 C -2,8 C -4,4 C 96 % 1027,7 hPa 0,0 l/m 0 min 0 min 0 W/m 3,2 km/h (1 Bft) 97,87 %
21.01.2023 05:18 -2,2 C -2,8 C -4,4 C 96 % 1027,8 hPa 0,0 l/m 0 min 0 min 0 W/m 9,7 km/h (2 Bft) 100,00 %
21.01.2023 05:20 -2,2 C -2,8 C -4,4 C 96 % 1027,8 hPa 0,0 l/m 0 min 0 min 0 W/m 9,7 km/h (2 Bft) 100,00 %
21.01.2023 05:22 -2,2 C -2,8 C -4,4 C 96 % 1027,8 hPa 0,0 l/m 0 min 0 min 0 W/m 9,7 km/h (2 Bft) 100,00 %
21.01.2023 05:24 -2,2 C -2,8 C -4,4 C 96 % 1027,8 hPa 0,0 l/m 0 min 0 min 0 W/m 6,4 km/h (2 Bft) 95,74 %
21.01.2023 05:26 -2,2 C -2,8 C -4,4 C 96 % 1027,8 hPa 0,0 l/m 0 min 0 min 0 W/m 6,4 km/h (2 Bft) 97,87 %
21.01.2023 05:28 -2,2 C -2,8 C -4,4 C 96 % 1027,9 hPa 0,0 l/m 0 min 0 min 0 W/m 9,7 km/h (2 Bft) 97,83 %
21.01.2023 05:30 -2,1 C -2,8 C -4,4 C 96 % 1027,9 hPa 0,0 l/m 0 min 0 min 0 W/m 9,7 km/h (2 Bft) 97,87 %
21.01.2023 05:32 -2,1 C -2,8 C -4,4 C 96 % 1027,9 hPa 0,0 l/m 0 min 0 min 0 W/m 6,4 km/h (2 Bft) 95,74 %
21.01.2023 05:34 -2,1 C -2,8 C -4,4 C 96 % 1028,0 hPa 0,0 l/m 0 min 0 min 0 W/m 9,7 km/h (2 Bft) 97,87 %
21.01.2023 05:36 -2,1 C -2,8 C -4,4 C 96 % 1028,0 hPa 0,0 l/m 0 min 0 min 0 W/m 3,2 km/h (1 Bft) 95,74 %
21.01.2023 05:38 -2,1 C -2,8 C -4,4 C 96 % 1028,0 hPa 0,0 l/m 0 min 0 min 0 W/m 6,4 km/h (2 Bft) 97,92 %
21.01.2023 05:40 -2,1 C -2,8 C -4,4 C 96 % 1028,0 hPa 0,0 l/m 0 min 0 min 0 W/m 6,4 km/h (2 Bft) 95,74 %
21.01.2023 05:42 -2,1 C -3,3 C -4,4 C 96 % 1028,0 hPa 0,0 l/m 0 min 0 min 0 W/m 3,2 km/h (1 Bft) 58,14 %
21.01.2023 05:44 -2,1 C -3,3 C -4,4 C 96 % 1028,1 hPa 0,0 l/m 0 min 0 min 0 W/m 0,0 km/h (0 Bft) 66,67 %
21.01.2023 05:46 -2,1 C -3,3 C -4,4 C 96 % 1028,1 hPa 0,0 l/m 0 min 0 min 0 W/m 0,0 km/h (0 Bft) 97,92 %
21.01.2023 05:48 -2,2 C -3,3 C -5,0 C 96 % 1028,1 hPa 0,0 l/m 0 min 0 min 0 W/m 6,4 km/h (2 Bft) 97,87 %
21.01.2023 05:50 -2,2 C -3,3 C -5,0 C 96 % 1028,2 hPa 0,0 l/m 0 min 0 min 0 W/m 3,2 km/h (1 Bft) 95,74 %
21.01.2023 05:52 -2,2 C -3,3 C -5,0 C 96 % 1028,2 hPa 0,0 l/m 0 min 0 min 0 W/m 6,4 km/h (2 Bft) 97,87 %
21.01.2023 05:54 -2,2 C -3,3 C -5,0 C 96 % 1028,2 hPa 0,0 l/m 0 min 0 min 0 W/m 6,4 km/h (2 Bft) 97,83 %
21.01.2023 05:56 -2,2 C -3,3 C -4,4 C 96 % 1028,3 hPa 0,0 l/m 0 min 0 min 0 W/m 9,7 km/h (2 Bft) 97,87 %
21.01.2023 05:58 -2,2 C -3,3 C -4,4 C 96 % 1028,3 hPa 0,0 l/m 0 min 0 min 0 W/m 9,7 km/h (2 Bft) 97,67 %
21.01.2023 06:00 -2,3 C -3,3 C -4,4 C 96 % 1028,2 hPa 0,0 l/m 0 min 0 min 0 W/m 6,4 km/h (2 Bft) 97,87 %
21.01.2023 06:02 -2,3 C -3,3 C -4,4 C 96 % 1028,3 hPa 0,0 l/m 0 min 0 min 0 W/m 9,7 km/h (2 Bft) 97,87 %
21.01.2023 06:04 -2,3 C -3,3 C -4,4 C 96 % 1028,3 hPa 0,0 l/m 0 min 0 min 0 W/m 3,2 km/h (1 Bft) 100,00 %
21.01.2023 06:07 -2,3 C -2,8 C -4,4 C 96 % 1028,3 hPa 0,0 l/m 0 min 0 min 0 W/m 9,7 km/h (2 Bft) 97,22 %
21.01.2023 06:08 -2,3 C -2,8 C -4,4 C 96 % 1028,3 hPa 0,0 l/m 0 min 0 min 0 W/m 3,2 km/h (1 Bft) 100,00 %
21.01.2023 06:12 -2,3 C -2,8 C -4,4 C 96 % 1028,3 hPa 0,0 l/m 0 min 0 min 0 W/m 12,9 km/h (3 Bft) 94,34 %
21.01.2023 06:14 -2,3 C -3,3 C -4,4 C 96 % 1028,3 hPa 0,0 l/m 0 min 0 min 0 W/m 6,4 km/h (2 Bft) 97,87 %
21.01.2023 06:16 -2,3 C -3,3 C -4,4 C 96 % 1028,4 hPa 0,0 l/m 0 min 0 min 0 W/m 12,9 km/h (3 Bft) 97,87 %
21.01.2023 06:18 -2,3 C -3,3 C -4,4 C 96 % 1028,4 hPa 0,0 l/m 0 min 0 min 0 W/m 3,2 km/h (1 Bft) 55,32 %
21.01.2023 06:20 -2,3 C -3,3 C -4,4 C 96 % 1028,4 hPa 0,0 l/m 0 min 0 min 0 W/m 9,7 km/h (2 Bft) 96,97 %
21.01.2023 06:22 -2,3 C -3,3 C -4,4 C 96 % 1028,4 hPa 0,0 l/m 0 min 0 min 0 W/m 3,2 km/h (1 Bft) 91,49 %
21.01.2023 06:24 -2,3 C -3,3 C -5,0 C 96 % 1028,4 hPa 0,0 l/m 0 min 0 min 0 W/m 6,4 km/h (2 Bft) 93,62 %
21.01.2023 06:26 -2,3 C -3,3 C -5,0 C 96 % 1028,5 hPa 0,0 l/m 0 min 0 min 0 W/m 6,4 km/h (2 Bft) 95,74 %
21.01.2023 06:28 -2,3 C -3,3 C -4,4 C 96 % 1028,5 hPa 0,0 l/m 0 min 0 min 0 W/m 9,7 km/h (2 Bft) 95,65 %
21.01.2023 06:30 -2,3 C -3,3 C -5,0 C 96 % 1028,5 hPa 0,0 l/m 0 min 0 min 0 W/m 3,2 km/h (1 Bft) 93,62 %
21.01.2023 06:32 -2,3 C -3,3 C -5,0 C 96 % 1028,5 hPa 0,0 l/m 0 min 0 min 0 W/m 6,4 km/h (2 Bft) 95,74 %
21.01.2023 06:34 -2,3 C -3,3 C -5,0 C 96 % 1028,5 hPa 0,0 l/m 0 min 0 min 0 W/m 6,4 km/h (2 Bft) 95,74 %
21.01.2023 06:36 -2,3 C -3,3 C -5,0 C 96 % 1028,5 hPa 0,0 l/m 0 min 0 min 0 W/m 3,2 km/h (1 Bft) 95,74 %
21.01.2023 06:38 -2,4 C -3,3 C -5,0 C 96 % 1028,6 hPa 0,0 l/m 0 min 0 min 0 W/m 6,4 km/h (2 Bft) 93,62 %
21.01.2023 06:40 -2,4 C -3,3 C -5,0 C 96 % 1028,5 hPa 0,0 l/m 0 min 0 min 0 W/m 3,2 km/h (1 Bft) 95,65 %
21.01.2023 06:42 -2,4 C -3,3 C -5,0 C 96 % 1028,6 hPa 0,0 l/m 0 min 0 min 0 W/m 6,4 km/h (2 Bft) 95,74 %
21.01.2023 06:44 -2,4 C -3,3 C -5,0 C 96 % 1028,6 hPa 0,0 l/m 0 min 0 min 0 W/m 6,4 km/h (2 Bft) 93,62 %
21.01.2023 06:46 -2,4 C -3,3 C -5,0 C 96 % 1028,6 hPa 0,0 l/m 0 min 0 min 0 W/m 6,4 km/h (2 Bft) 93,62 %
21.01.2023 06:48 -2,4 C -3,3 C -5,0 C 96 % 1028,6 hPa 0,0 l/m 0 min 0 min 0 W/m 6,4 km/h (2 Bft) 95,74 %
21.01.2023 06:50 -2,4 C -3,3 C -5,0 C 96 % 1028,6 hPa 0,0 l/m 0 min 0 min 0 W/m 9,7 km/h (2 Bft) 97,87 %
21.01.2023 06:52 -2,4 C -3,3 C -5,0 C 96 % 1028,6 hPa 0,0 l/m 0 min 0 min 0 W/m 6,4 km/h (2 Bft) 97,87 %
21.01.2023 06:54 -2,4 C -3,3 C -5,0 C 96 % 1028,7 hPa 0,0 l/m 0 min 0 min 0 W/m 6,4 km/h (2 Bft) 97,83 %
21.01.2023 06:56 -2,4 C -3,3 C -5,0 C 96 % 1028,7 hPa 0,0 l/m 0 min 0 min 0 W/m 3,2 km/h (1 Bft) 97,87 %
21.01.2023 06:58 -2,5 C -3,3 C -5,0 C 96 % 1028,8 hPa 0,0 l/m 0 min 0 min 0 W/m 9,7 km/h (2 Bft) 97,87 %
21.01.2023 07:00 -2,5 C -3,3 C -5,0 C 96 % 1028,8 hPa 0,0 l/m 0 min 0 min 0 W/m 0,0 km/h (0 Bft) 100,00 %
21.01.2023 07:02 -2,5 C -3,3 C -5,0 C 96 % 1028,8 hPa 0,0 l/m 0 min 0 min 0 W/m 0,0 km/h (0 Bft) 100,00 %
21.01.2023 07:04 -2,5 C -3,3 C -5,0 C 96 % 1028,8 hPa 0,0 l/m 0 min 0 min 0 W/m 0,0 km/h (0 Bft) 100,00 %
21.01.2023 07:06 -2,5 C -3,3 C -5,0 C 96 % 1028,9 hPa 0,0 l/m 0 min 0 min 0 W/m 0,0 km/h (0 Bft) 96,55 %
21.01.2023 07:08 -2,5 C -3,3 C -5,0 C 96 % 1028,9 hPa 0,0 l/m 0 min 0 min 0 W/m 0,0 km/h (0 Bft) 97,22 %
21.01.2023 07:10 -2,5 C -3,3 C -5,0 C 96 % 1028,9 hPa 0,0 l/m 0 min 0 min 0 W/m 0,0 km/h (0 Bft) 95,65 %
21.01.2023 07:12 -2,4 C -3,3 C -5,0 C 96 % 1028,9 hPa 0,0 l/m 0 min 0 min 0 W/m 0,0 km/h (0 Bft) 97,87 %
21.01.2023 07:14 -2,5 C -3,3 C -5,0 C 96 % 1028,9 hPa 0,0 l/m 0 min 0 min 0 W/m 3,2 km/h (1 Bft) 100,00 %
21.01.2023 07:16 -2,5 C -3,3 C -5,0 C 96 % 1028,9 hPa 0,0 l/m 0 min 0 min 0 W/m 6,4 km/h (2 Bft) 95,74 %
21.01.2023 07:18 -2,5 C -3,3 C -5,0 C 96 % 1028,9 hPa 0,0 l/m 0 min 0 min 0 W/m 6,4 km/h (2 Bft) 95,74 %
21.01.2023 07:20 -2,5 C -3,3 C -5,0 C 96 % 1028,9 hPa 0,0 l/m 0 min 0 min 0 W/m 6,4 km/h (2 Bft) 97,87 %
21.01.2023 07:22 -2,5 C -3,9 C -5,0 C 96 % 1029,0 hPa 0,0 l/m 0 min 0 min 0 W/m 3,2 km/h (1 Bft) 97,83 %
21.01.2023 07:24 -2,5 C -3,9 C -5,0 C 96 % 1029,1 hPa 0,0 l/m 0 min 0 min 0 W/m 3,2 km/h (1 Bft) 100,00 %
21.01.2023 07:26 -2,5 C -3,9 C -5,0 C 96 % 1029,2 hPa 0,0 l/m 0 min 0 min 0 W/m 3,2 km/h (1 Bft) 97,87 %
21.01.2023 07:28 -2,5 C -3,9 C -5,0 C 96 % 1029,2 hPa 0,0 l/m 0 min 0 min 0 W/m 3,2 km/h (1 Bft) 97,87 %
21.01.2023 07:30 -2,6 C -3,9 C -5,0 C 96 % 1029,3 hPa 0,0 l/m 0 min 0 min 0 W/m 0,0 km/h (0 Bft) 97,87 %
21.01.2023 07:32 -2,6 C -3,9 C -5,0 C 96 % 1029,3 hPa 0,0 l/m 0 min 0 min 0 W/m 3,2 km/h (1 Bft) 100,00 %
21.01.2023 07:34 -2,6 C -3,9 C -5,0 C 96 % 1029,3 hPa 0,0 l/m 0 min 0 min 0 W/m 0,0 km/h (0 Bft) 95,74 %
21.01.2023 07:36 -2,6 C -3,9 C -5,0 C 96 % 1029,3 hPa 0,0 l/m 0 min 0 min 0 W/m 3,2 km/h (1 Bft) 95,74 %
21.01.2023 07:38 -2,6 C -3,9 C -5,0 C 96 % 1029,4 hPa 0,0 l/m 0 min 0 min 0 W/m 3,2 km/h (1 Bft) 100,00 %
21.01.2023 07:40 -2,6 C -3,9 C -5,0 C 96 % 1029,4 hPa 0,0 l/m 0 min 0 min 0 W/m 6,4 km/h (2 Bft) 97,87 %
21.01.2023 07:42 -2,6 C -3,9 C -5,0 C 96 % 1029,5 hPa 0,0 l/m 0 min 0 min 0 W/m 0,0 km/h (0 Bft) 95,74 %
21.01.2023 07:44 -2,7 C -3,9 C -5,0 C 96 % 1029,5 hPa 0,0 l/m 0 min 0 min 0 W/m 0,0 km/h (0 Bft) 95,74 %
21.01.2023 07:46 -2,7 C -3,9 C -5,0 C 96 % 1029,5 hPa 0,0 l/m 0 min 0 min 0 W/m 3,2 km/h (1 Bft) 95,83 %
21.01.2023 07:48 -2,7 C -3,9 C -5,0 C 96 % 1029,5 hPa 0,0 l/m 0 min 0 min 0 W/m 6,4 km/h (2 Bft) 97,87 %
21.01.2023 07:50 -2,7 C -3,9 C -5,0 C 96 % 1029,6 hPa 0,0 l/m 0 min 0 min 0 W/m 3,2 km/h (1 Bft) 97,83 %
21.01.2023 07:52 -2,7 C -3,9 C -5,0 C 96 % 1029,6 hPa 0,0 l/m 0 min 0 min 0 W/m 3,2 km/h (1 Bft) 96,00 %
21.01.2023 07:54 -2,7 C -3,9 C -5,0 C 96 % 1029,6 hPa 0,0 l/m 0 min 0 min 0 W/m 0,0 km/h (0 Bft) 95,83 %
21.01.2023 07:56 -2,7 C -3,9 C -5,6 C 96 % 1029,7 hPa 0,0 l/m 0 min 0 min 0 W/m 3,2 km/h (1 Bft) 100,00 %
21.01.2023 07:58 -2,8 C -3,9 C -5,6 C 96 % 1029,7 hPa 0,0 l/m 0 min 0 min 0 W/m 3,2 km/h (1 Bft) 97,87 %
21.01.2023 08:00 -2,8 C -3,9 C -5,6 C 96 % 1029,8 hPa 0,0 l/m 0 min 0 min 0 W/m 0,0 km/h (0 Bft) 96,49 %
21.01.2023 08:02 -2,8 C -3,9 C -5,6 C 96 % 1029,8 hPa 0,0 l/m 0 min 0 min 0 W/m 0,0 km/h (0 Bft) 93,62 %
21.01.2023 08:04 -2,8 C -3,9 C -5,6 C 96 % 1029,8 hPa 0,0 l/m 0 min 0 min 0 W/m 0,0 km/h (0 Bft) 97,83 %
21.01.2023 08:06 -2,9 C -3,9 C -5,6 C 96 % 1029,8 hPa 0,0 l/m 0 min 0 min 0 W/m 0,0 km/h (0 Bft) 95,74 %
21.01.2023 08:08 -2,9 C -3,9 C -5,6 C 96 % 1029,8 hPa 0,0 l/m 0 min 0 min 0 W/m 0,0 km/h (0 Bft) 95,74 %
21.01.2023 08:10 -2,9 C -3,9 C -5,6 C 96 % 1029,9 hPa 0,0 l/m 0 min 0 min 0 W/m 0,0 km/h (0 Bft) 97,87 %
21.01.2023 08:12 -2,9 C -3,9 C -5,6 C 96 % 1029,9 hPa 0,0 l/m 0 min 0 min 0 W/m 0,0 km/h (0 Bft) 93,62 %
21.01.2023 08:14 -2,9 C -3,9 C -5,6 C 96 % 1029,9 hPa 0,0 l/m 0 min 0 min 0 W/m 0,0 km/h (0 Bft) 91,49 %
21.01.2023 08:16 -2,9 C -3,9 C -5,6 C 96 % 1029,9 hPa 0,0 l/m 0 min 0 min 0 W/m 0,0 km/h (0 Bft) 97,87 %
21.01.2023 08:18 -3,0 C -3,9 C -5,6 C 96 % 1029,9 hPa 0,0 l/m 0 min 0 min 0 W/m 0,0 km/h (0 Bft) 95,65 %
21.01.2023 08:20 -3,0 C -3,9 C -5,6 C 96 % 1029,9 hPa 0,0 l/m 0 min 0 min 0 W/m 0,0 km/h (0 Bft) 95,74 %
21.01.2023 08:22 -3,0 C -3,9 C -5,6 C 96 % 1029,9 hPa 0,0 l/m 0 min 0 min 0 W/m 0,0 km/h (0 Bft) 80,85 %
21.01.2023 08:24 -3,1 C -4,4 C -5,6 C 96 % 1029,9 hPa 0,0 l/m 0 min 0 min 0 W/m 0,0 km/h (0 Bft) 97,87 %
21.01.2023 08:26 -3,1 C -4,4 C -5,6 C 96 % 1030,0 hPa 0,0 l/m 0 min 0 min 0 W/m 0,0 km/h (0 Bft) 97,87 %
21.01.2023 08:28 -3,1 C -4,4 C -5,6 C 96 % 1030,0 hPa 0,0 l/m 0 min 0 min 0 W/m 0,0 km/h (0 Bft) 97,87 %
21.01.2023 08:30 -3,1 C -4,4 C -5,6 C 96 % 1030,0 hPa 0,0 l/m 0 min 0 min 0 W/m 0,0 km/h (0 Bft) 97,87 %
21.01.2023 08:32 -3,1 C -4,4 C -5,6 C 96 % 1030,0 hPa 0,0 l/m 0 min 0 min 3 W/m 0,0 km/h (0 Bft) 95,65 %
21.01.2023 08:34 -3,1 C -4,4 C -5,6 C 96 % 1030,1 hPa 0,0 l/m 0 min 0 min 5 W/m 0,0 km/h (0 Bft) 95,74 %
21.01.2023 08:36 -3,2 C -4,4 C -5,6 C 96 % 1030,1 hPa 0,0 l/m 0 min 0 min 5 W/m 0,0 km/h (0 Bft) 100,00 %
21.01.2023 08:38 -3,2 C -3,9 C -5,6 C 96 % 1030,2 hPa 0,0 l/m 0 min 0 min 5 W/m 0,0 km/h (0 Bft) 100,00 %
21.01.2023 08:40 -3,2 C -3,9 C -5,6 C 96 % 1030,2 hPa 0,0 l/m 0 min 0 min 7 W/m 0,0 km/h (0 Bft) 97,87 %
21.01.2023 08:42 -3,2 C -3,9 C -5,6 C 96 % 1030,2 hPa 0,0 l/m 0 min 0 min 7 W/m 0,0 km/h (0 Bft) 100,00 %
21.01.2023 08:44 -3,2 C -3,9 C -5,6 C 96 % 1030,3 hPa 0,0 l/m 0 min 0 min 7 W/m 6,4 km/h (2 Bft) 100,00 %
21.01.2023 08:46 -3,2 C -3,9 C -5,6 C 96 % 1030,3 hPa 0,0 l/m 0 min 0 min 9 W/m 3,2 km/h (1 Bft) 95,65 %
21.01.2023 08:48 -3,2 C -3,9 C -5,6 C 96 % 1030,3 hPa 0,0 l/m 0 min 0 min 10 W/m 3,2 km/h (1 Bft) 100,00 %
21.01.2023 08:50 -3,2 C -3,9 C -5,6 C 96 % 1030,3 hPa 0,0 l/m 0 min 0 min 11 W/m 3,2 km/h (1 Bft) 100,00 %
21.01.2023 08:52 -3,2 C -3,9 C -5,6 C 96 % 1030,3 hPa 0,0 l/m 0 min 0 min 12 W/m 3,2 km/h (1 Bft) 100,00 %
21.01.2023 08:54 -3,2 C -3,9 C -5,6 C 96 % 1030,3 hPa 0,0 l/m 0 min 0 min 14 W/m 9,7 km/h (2 Bft) 100,00 %
21.01.2023 08:56 -3,2 C -3,3 C -5,0 C 96 % 1030,4 hPa 0,0 l/m 0 min 0 min 15 W/m 6,4 km/h (2 Bft) 97,87 %
21.01.2023 08:58 -3,2 C -3,3 C -5,0 C 96 % 1030,4 hPa 0,0 l/m 0 min 0 min 17 W/m 3,2 km/h (1 Bft) 97,87 %
21.01.2023 09:00 -3,2 C -3,3 C -5,0 C 96 % 1030,4 hPa 0,0 l/m 0 min 0 min 18 W/m 3,2 km/h (1 Bft) 97,83 %
21.01.2023 09:02 -3,1 C -3,3 C -5,0 C 96 % 1030,5 hPa 0,0 l/m 0 min 0 min 19 W/m 6,4 km/h (2 Bft) 97,87 %
21.01.2023 09:04 -3,1 C -3,3 C -5,0 C 96 % 1030,4 hPa 0,0 l/m 0 min 0 min 19 W/m 6,4 km/h (2 Bft) 100,00 %
21.01.2023 09:06 -3,0 C -3,3 C -5,0 C 96 % 1030,5 hPa 0,0 l/m 0 min 0 min 21 W/m 3,2 km/h (1 Bft) 97,87 %
21.01.2023 09:08 -3,0 C -3,3 C -5,0 C 96 % 1030,5 hPa 0,0 l/m 0 min 0 min 22 W/m 6,4 km/h (2 Bft) 100,00 %
21.01.2023 09:10 -3,0 C -3,3 C -5,0 C 96 % 1030,5 hPa 0,0 l/m 0 min 0 min 23 W/m 6,4 km/h (2 Bft) 97,87 %
21.01.2023 09:12 -3,0 C -3,3 C -5,0 C 96 % 1030,6 hPa 0,0 l/m 0 min 0 min 25 W/m 3,2 km/h (1 Bft) 97,87 %
21.01.2023 09:14 -2,9 C -3,3 C -5,0 C 96 % 1030,5 hPa 0,0 l/m 0 min 0 min 25 W/m 6,4 km/h (2 Bft) 100,00 %
21.01.2023 09:16 -3,0 C -3,3 C -5,0 C 96 % 1030,6 hPa 0,0 l/m 0 min 0 min 26 W/m 6,4 km/h (2 Bft) 97,87 %
21.01.2023 09:18 -2,9 C -3,3 C -5,0 C 96 % 1030,6 hPa 0,0 l/m 0 min 0 min 27 W/m 0,0 km/h (0 Bft) 97,87 %
21.01.2023 09:20 -2,9 C -3,3 C -5,0 C 96 % 1030,7 hPa 0,0 l/m 0 min 0 min 29 W/m 0,0 km/h (0 Bft) 100,00 %
21.01.2023 09:22 -2,9 C -3,3 C -5,0 C 96 % 1030,7 hPa 0,0 l/m 0 min 0 min 31 W/m 0,0 km/h (0 Bft) 97,87 %
21.01.2023 09:24 -2,9 C -3,3 C -5,0 C 96 % 1030,7 hPa 0,0 l/m 0 min 0 min 32 W/m 0,0 km/h (0 Bft) 93,62 %
21.01.2023 09:26 -2,9 C -3,3 C -5,0 C 96 % 1030,7 hPa 0,0 l/m 0 min 0 min 33 W/m 0,0 km/h (0 Bft) 95,74 %
21.01.2023 09:28 -2,9 C -2,8 C -5,0 C 96 % 1030,8 hPa 0,0 l/m 0 min 0 min 34 W/m 0,0 km/h (0 Bft) 97,83 %
21.01.2023 09:30 -2,8 C -2,8 C -5,0 C 96 % 1030,7 hPa 0,0 l/m 0 min 0 min 36 W/m 0,0 km/h (0 Bft) 97,87 %
21.01.2023 09:32 -2,8 C -2,8 C -5,0 C 96 % 1030,7 hPa 0,0 l/m 0 min 0 min 38 W/m 0,0 km/h (0 Bft) 97,87 %
21.01.2023 09:34 -2,8 C -2,8 C -5,0 C 96 % 1030,7 hPa 0,0 l/m 0 min 0 min 39 W/m 0,0 km/h (0 Bft) 95,74 %
21.01.2023 09:36 -2,7 C -2,8 C -5,0 C 96 % 1030,7 hPa 0,0 l/m 0 min 0 min 39 W/m 0,0 km/h (0 Bft) 97,87 %
21.01.2023 09:38 -2,7 C -2,8 C -4,4 C 96 % 1030,7 hPa 0,0 l/m 0 min 0 min 41 W/m 0,0 km/h (0 Bft) 95,74 %
21.01.2023 09:40 -2,7 C -2,8 C -4,4 C 96 % 1030,8 hPa 0,0 l/m 0 min 0 min 43 W/m 0,0 km/h (0 Bft) 95,65 %
21.01.2023 09:42 -2,7 C -2,2 C -4,4 C 96 % 1030,8 hPa 0,0 l/m 0 min 0 min 46 W/m 0,0 km/h (0 Bft) 95,74 %
21.01.2023 09:44 -2,6 C -2,2 C -4,4 C 96 % 1030,9 hPa 0,0 l/m 0 min 0 min 49 W/m 0,0 km/h (0 Bft) 44,74 %
21.01.2023 09:46 -2,6 C -2,2 C -4,4 C 96 % 1030,9 hPa 0,0 l/m 0 min 0 min 52 W/m 0,0 km/h (0 Bft) 97,62 %
21.01.2023 09:48 -2,6 C -2,2 C -4,4 C 96 % 1031,0 hPa 0,0 l/m 0 min 0 min 54 W/m 0,0 km/h (0 Bft) 93,62 %
21.01.2023 09:50 -2,5 C -2,2 C -4,4 C 96 % 1031,0 hPa 0,0 l/m 0 min 0 min 62 W/m 6,4 km/h (2 Bft) 95,74 %
21.01.2023 09:52 -2,5 C -2,2 C -4,4 C 96 % 1031,1 hPa 0,0 l/m 0 min 0 min 72 W/m 9,7 km/h (2 Bft) 93,62 %
21.01.2023 09:54 -2,4 C -1,7 C -4,4 C 96 % 1031,2 hPa 0,0 l/m 0 min 0 min 78 W/m 12,9 km/h (3 Bft) 95,65 %
21.01.2023 09:56 -2,4 C -1,7 C -4,4 C 96 % 1031,2 hPa 0,0 l/m 0 min 0 min 80 W/m 9,7 km/h (2 Bft) 95,74 %
21.01.2023 09:58 -2,3 C -1,7 C -3,9 C 96 % 1031,1 hPa 0,0 l/m 0 min 0 min 66 W/m 6,4 km/h (2 Bft) 89,36 %
21.01.2023 10:00 -2,2 C -1,7 C -3,9 C 96 % 1031,2 hPa 0,0 l/m 0 min 0 min 62 W/m 6,4 km/h (2 Bft) 93,62 %
21.01.2023 10:02 -2,2 C -1,7 C -3,9 C 96 % 1031,3 hPa 0,0 l/m 0 min 0 min 59 W/m 3,2 km/h (1 Bft) 89,36 %
21.01.2023 10:04 -2,1 C -1,7 C -3,9 C 97 % 1031,3 hPa 0,0 l/m 0 min 0 min 56 W/m 3,2 km/h (1 Bft) 89,36 %
21.01.2023 10:06 -2,1 C -1,7 C -3,9 C 97 % 1031,3 hPa 0,0 l/m 0 min 0 min 59 W/m 3,2 km/h (1 Bft) 92,45 %
21.01.2023 10:08 -2,0 C -1,7 C -3,9 C 97 % 1031,4 hPa 0,0 l/m 0 min 0 min 57 W/m 6,4 km/h (2 Bft) 93,48 %
21.01.2023 10:10 -1,9 C -1,7 C -3,9 C 96 % 1031,4 hPa 0,0 l/m 0 min 0 min 56 W/m 6,4 km/h (2 Bft) 92,00 %
21.01.2023 10:12 -1,9 C -1,7 C -3,9 C 96 % 1031,4 hPa 0,0 l/m 0 min 0 min 59 W/m 6,4 km/h (2 Bft) 97,37 %
21.01.2023 10:14 -1,8 C -1,7 C -3,9 C 96 % 1031,5 hPa 0,0 l/m 0 min 0 min 62 W/m 6,4 km/h (2 Bft) 93,62 %
21.01.2023 10:16 -1,8 C -1,7 C -3,3 C 97 % 1031,5 hPa 0,0 l/m 0 min 0 min 59 W/m 6,4 km/h (2 Bft) 91,49 %
21.01.2023 10:18 -1,7 C -1,7 C -3,3 C 97 % 1031,5 hPa 0,0 l/m 0 min 0 min 62 W/m 9,7 km/h (2 Bft) 93,62 %
21.01.2023 10:20 -1,7 C -1,7 C -3,3 C 97 % 1031,5 hPa 0,0 l/m 0 min 0 min 55 W/m 12,9 km/h (3 Bft) 95,74 %
21.01.2023 10:22 -1,7 C -1,7 C -3,3 C 97 % 1031,5 hPa 0,0 l/m 0 min 0 min 49 W/m 6,4 km/h (2 Bft) 95,65 %
21.01.2023 10:24 -1,6 C -1,7 C -3,3 C 97 % 1031,6 hPa 0,0 l/m 0 min 0 min 51 W/m 9,7 km/h (2 Bft) 93,62 %
21.01.2023 10:26 -1,6 C -1,7 C -3,3 C 97 % 1031,6 hPa 0,0 l/m 0 min 0 min 48 W/m 6,4 km/h (2 Bft) 97,87 %
21.01.2023 10:28 -1,6 C -1,7 C -3,3 C 97 % 1031,6 hPa 0,0 l/m 0 min 0 min 48 W/m 9,7 km/h (2 Bft) 95,74 %
21.01.2023 10:30 -1,6 C -1,7 C -3,3 C 97 % 1031,6 hPa 0,0 l/m 0 min 0 min 46 W/m 9,7 km/h (2 Bft) 100,00 %
21.01.2023 10:32 -1,6 C -1,7 C -3,3 C 97 % 1031,6 hPa 0,0 l/m 0 min 0 min 47 W/m 6,4 km/h (2 Bft) 97,87 %
21.01.2023 10:34 -1,5 C -1,7 C -3,3 C 97 % 1031,6 hPa 0,0 l/m 0 min 0 min 41 W/m 0,0 km/h (0 Bft) 95,65 %
21.01.2023 10:36 -1,5 C -1,7 C -3,3 C 97 % 1031,7 hPa 0,0 l/m 0 min 0 min 39 W/m 0,0 km/h (0 Bft) 95,74 %
21.01.2023 10:38 -1,5 C -1,7 C -3,3 C 97 % 1031,7 hPa 0,0 l/m 0 min 0 min 39 W/m 0,0 km/h (0 Bft) 97,87 %
21.01.2023 10:40 -1,5 C -1,7 C -3,3 C 97 % 1031,8 hPa 0,0 l/m 0 min 0 min 39 W/m 0,0 km/h (0 Bft) 97,87 %
21.01.2023 10:42 -1,5 C -1,7 C -3,3 C 97 % 1031,7 hPa 0,0 l/m 0 min 0 min 39 W/m 0,0 km/h (0 Bft) 95,74 %
21.01.2023 10:44 -1,4 C -1,7 C -3,3 C 97 % 1031,8 hPa 0,0 l/m 0 min 0 min 40 W/m 0,0 km/h (0 Bft) 97,87 %
21.01.2023 10:46 -1,4 C -1,7 C -3,3 C 97 % 1031,8 hPa 0,0 l/m 0 min 0 min 40 W/m 6,4 km/h (2 Bft) 100,00 %
21.01.2023 10:48 -1,4 C -1,7 C -3,3 C 97 % 1031,8 hPa 0,0 l/m 0 min 0 min 40 W/m 9,7 km/h (2 Bft) 100,00 %
21.01.2023 10:50 -1,4 C -1,1 C -3,3 C 97 % 1031,8 hPa 0,0 l/m 0 min 0 min 40 W/m 3,2 km/h (1 Bft) 100,00 %
21.01.2023 10:52 -1,4 C -1,1 C -3,3 C 97 % 1031,9 hPa 0,0 l/m 0 min 0 min 39 W/m 3,2 km/h (1 Bft) 100,00 %
21.01.2023 10:54 -1,4 C -1,1 C -3,3 C 97 % 1031,9 hPa 0,0 l/m 0 min 0 min 40 W/m 6,4 km/h (2 Bft) 100,00 %
21.01.2023 10:56 -1,4 C -1,1 C -3,3 C 97 % 1031,9 hPa 0,0 l/m 0 min 0 min 44 W/m 3,2 km/h (1 Bft) 100,00 %
21.01.2023 10:58 -1,3 C -1,1 C -3,3 C 97 % 1031,9 hPa 0,0 l/m 0 min 0 min 45 W/m 6,4 km/h (2 Bft) 97,87 %
21.01.2023 11:00 -1,3 C -1,1 C -3,3 C 97 % 1032,0 hPa 0,0 l/m 0 min 0 min 43 W/m 6,4 km/h (2 Bft) 100,00 %
21.01.2023 11:02 -1,3 C -1,1 C -3,3 C 97 % 1032,0 hPa 0,0 l/m 0 min 0 min 42 W/m 9,7 km/h (2 Bft) 97,83 %
21.01.2023 11:04 -1,3 C -1,1 C -3,3 C 97 % 1032,0 hPa 0,0 l/m 0 min 0 min 41 W/m 6,4 km/h (2 Bft) 100,00 %
21.01.2023 11:06 -1,3 C -1,1 C -3,3 C 97 % 1032,0 hPa 0,0 l/m 0 min 0 min 40 W/m 6,4 km/h (2 Bft) 97,87 %
21.01.2023 11:08 -1,3 C -1,1 C -3,3 C 97 % 1032,0 hPa 0,0 l/m 0 min 0 min 43 W/m 3,2 km/h (1 Bft) 100,00 %
21.01.2023 11:10 -1,3 C -1,1 C -3,3 C 97 % 1032,0 hPa 0,0 l/m 0 min 0 min 44 W/m 0,0 km/h (0 Bft) 100,00 %
21.01.2023 11:12 -1,2 C -1,1 C -2,8 C 97 % 1031,9 hPa 0,0 l/m 0 min 0 min 42 W/m 0,0 km/h (0 Bft) 100,00 %
21.01.2023 11:14 -1,2 C -1,1 C -2,8 C 97 % 1031,9 hPa 0,0 l/m 0 min 0 min 46 W/m 0,0 km/h (0 Bft) 100,00 %
21.01.2023 11:16 -1,2 C -1,1 C -2,8 C 97 % 1031,9 hPa 0,0 l/m 0 min 0 min 52 W/m 0,0 km/h (0 Bft) 100,00 %
21.01.2023 11:18 -1,2 C -1,1 C -2,8 C 97 % 1031,9 hPa 0,0 l/m 0 min 0 min 53 W/m 0,0 km/h (0 Bft) 97,87 %
21.01.2023 11:20 -1,2 C -1,1 C -2,8 C 97 % 1031,9 hPa 0,0 l/m 0 min 0 min 56 W/m 0,0 km/h (0 Bft) 100,00 %
21.01.2023 11:22 -1,2 C -1,1 C -2,8 C 97 % 1031,9 hPa 0,0 l/m 0 min 0 min 54 W/m 0,0 km/h (0 Bft) 93,62 %
21.01.2023 11:24 -1,2 C -1,1 C -2,8 C 97 % 1031,9 hPa 0,0 l/m 0 min 0 min 52 W/m 0,0 km/h (0 Bft) 95,74 %
21.01.2023 11:26 -1,1 C -1,1 C -2,8 C 97 % 1032,0 hPa 0,0 l/m 0 min 0 min 53 W/m 0,0 km/h (0 Bft) 100,00 %
21.01.2023 11:28 -1,1 C -1,1 C -2,8 C 97 % 1031,9 hPa 0,0 l/m 0 min 0 min 53 W/m 0,0 km/h (0 Bft) 97,83 %
21.01.2023 11:30 -1,1 C -1,1 C -2,8 C 97 % 1031,9 hPa 0,0 l/m 0 min 0 min 52 W/m 0,0 km/h (0 Bft) 97,87 %
21.01.2023 11:32 -1,1 C -1,1 C -2,8 C 97 % 1031,9 hPa 0,0 l/m 0 min 0 min 50 W/m 0,0 km/h (0 Bft) 100,00 %
21.01.2023 11:34 -1,1 C -1,1 C -2,8 C 97 % 1031,9 hPa 0,0 l/m 0 min 0 min 49 W/m 0,0 km/h (0 Bft) 100,00 %
21.01.2023 11:36 -1,0 C -0,6 C -2,8 C 97 % 1031,9 hPa 0,0 l/m 0 min 0 min 50 W/m 0,0 km/h (0 Bft) 97,87 %
21.01.2023 11:38 -1,0 C -0,6 C -2,8 C 97 % 1031,9 hPa 0,0 l/m 0 min 0 min 55 W/m 0,0 km/h (0 Bft) 100,00 %
21.01.2023 11:40 -0,9 C -0,6 C -2,8 C 97 % 1031,9 hPa 0,0 l/m 0 min 0 min 60 W/m 9,7 km/h (2 Bft) 97,87 %
21.01.2023 11:42 -0,9 C -0,6 C -2,8 C 97 % 1031,9 hPa 0,0 l/m 0 min 0 min 59 W/m 6,4 km/h (2 Bft) 100,00 %
21.01.2023 11:44 -0,9 C -0,6 C -2,8 C 97 % 1031,9 hPa 0,0 l/m 0 min 0 min 60 W/m 3,2 km/h (1 Bft) 100,00 %
21.01.2023 11:46 -0,9 C -0,6 C -2,8 C 97 % 1031,9 hPa 0,0 l/m 0 min 0 min 63 W/m 9,7 km/h (2 Bft) 100,00 %
21.01.2023 11:48 -0,8 C -0,6 C -2,8 C 97 % 1031,9 hPa 0,0 l/m 0 min 0 min 61 W/m 9,7 km/h (2 Bft) 97,87 %
21.01.2023 11:50 -0,8 C -0,6 C -2,8 C 97 % 1031,8 hPa 0,0 l/m 0 min 0 min 63 W/m 6,4 km/h (2 Bft) 97,87 %
21.01.2023 11:52 -0,8 C -0,6 C -2,8 C 97 % 1031,9 hPa 0,0 l/m 0 min 0 min 64 W/m 12,9 km/h (3 Bft) 97,87 %
21.01.2023 11:54 -0,8 C -0,6 C -2,8 C 97 % 1031,9 hPa 0,0 l/m 0 min 0 min 65 W/m 0,0 km/h (0 Bft) 97,87 %
21.01.2023 11:56 -0,8 C -0,6 C -2,8 C 97 % 1032,0 hPa 0,0 l/m 0 min 0 min 62 W/m 9,7 km/h (2 Bft) 97,83 %
21.01.2023 11:58 -0,8 C -0,6 C -2,8 C 97 % 1031,9 hPa 0,0 l/m 0 min 0 min 60 W/m 9,7 km/h (2 Bft) 97,87 %
21.01.2023 12:00 -0,8 C -0,6 C -2,2 C 97 % 1032,0 hPa 0,0 l/m 0 min 0 min 60 W/m 6,4 km/h (2 Bft) 97,87 %
21.01.2023 12:02 -0,7 C -0,6 C -2,2 C 97 % 1031,9 hPa 0,0 l/m 0 min 0 min 63 W/m 3,2 km/h (1 Bft) 95,74 %
21.01.2023 12:04 -0,7 C -0,6 C -2,2 C 97 % 1031,9 hPa 0,0 l/m 0 min 0 min 60 W/m 9,7 km/h (2 Bft) 97,87 %
21.01.2023 12:07 -0,7 C -0,6 C -2,2 C 97 % 1031,8 hPa 0,0 l/m 0 min 0 min 61 W/m 6,4 km/h (2 Bft) 97,22 %
21.01.2023 12:08 -0,7 C -0,6 C -2,2 C 97 % 1031,8 hPa 0,0 l/m 0 min 0 min 54 W/m 6,4 km/h (2 Bft) 100,00 %
21.01.2023 12:10 -0,6 C -0,6 C -2,2 C 97 % 1031,9 hPa 0,0 l/m 0 min 0 min 54 W/m 3,2 km/h (1 Bft) 93,62 %
21.01.2023 12:12 -0,6 C -0,6 C -2,2 C 97 % 1031,9 hPa 0,0 l/m 0 min 0 min 55 W/m 6,4 km/h (2 Bft) 93,62 %
21.01.2023 12:14 -0,6 C -0,6 C -2,2 C 97 % 1031,9 hPa 0,0 l/m 0 min 0 min 57 W/m 9,7 km/h (2 Bft) 97,87 %
21.01.2023 12:16 -0,6 C -0,6 C -2,2 C 97 % 1031,9 hPa 0,0 l/m 0 min 0 min 59 W/m 6,4 km/h (2 Bft) 95,74 %
21.01.2023 12:18 -0,6 C -0,6 C -2,2 C 97 % 1031,9 hPa 0,0 l/m 0 min 0 min 59 W/m 0,0 km/h (0 Bft) 95,74 %
21.01.2023 12:20 -0,5 C -0,6 C -2,2 C 97 % 1031,9 hPa 0,0 l/m 0 min 0 min 63 W/m 0,0 km/h (0 Bft) 95,74 %
21.01.2023 12:22 -0,5 C -0,6 C -2,2 C 97 % 1031,9 hPa 0,0 l/m 0 min 0 min 62 W/m 6,4 km/h (2 Bft) 97,83 %
21.01.2023 12:24 -0,4 C -0,6 C -2,2 C 96 % 1031,9 hPa 0,0 l/m 0 min 0 min 58 W/m 9,7 km/h (2 Bft) 97,87 %
21.01.2023 12:26 -0,4 C 0,0 C -2,2 C 97 % 1031,9 hPa 0,0 l/m 0 min 0 min 61 W/m 9,7 km/h (2 Bft) 51,16 %
21.01.2023 12:28 -0,4 C 0,0 C -2,2 C 97 % 1031,9 hPa 0,0 l/m 0 min 0 min 60 W/m 6,4 km/h (2 Bft) 95,65 %
21.01.2023 12:30 -0,4 C 0,0 C -2,2 C 97 % 1031,8 hPa 0,0 l/m 0 min 0 min 55 W/m 3,2 km/h (1 Bft) 95,74 %
21.01.2023 12:32 -0,4 C 0,0 C -2,2 C 97 % 1031,9 hPa 0,0 l/m 0 min 0 min 52 W/m 3,2 km/h (1 Bft) 95,74 %
21.01.2023 12:34 -0,4 C 0,0 C -2,2 C 97 % 1031,9 hPa 0,0 l/m 0 min 0 min 52 W/m 3,2 km/h (1 Bft) 100,00 %
21.01.2023 12:36 -0,4 C 0,0 C -2,2 C 96 % 1031,9 hPa 0,0 l/m 0 min 0 min 46 W/m 3,2 km/h (1 Bft) 97,83 %
21.01.2023 12:38 -0,3 C 0,0 C -2,2 C 96 % 1031,9 hPa 0,0 l/m 0 min 0 min 52 W/m 6,4 km/h (2 Bft) 91,49 %
21.01.2023 12:40 -0,3 C 0,0 C -2,2 C 96 % 1031,9 hPa 0,0 l/m 0 min 0 min 55 W/m 3,2 km/h (1 Bft) 95,74 %
21.01.2023 12:42 -0,3 C 0,0 C -2,2 C 96 % 1032,0 hPa 0,0 l/m 0 min 0 min 66 W/m 6,4 km/h (2 Bft) 95,74 %
21.01.2023 12:44 -0,3 C 0,0 C -2,2 C 96 % 1031,9 hPa 0,0 l/m 0 min 0 min 65 W/m 9,7 km/h (2 Bft) 94,74 %
21.01.2023 12:46 -0,3 C 0,0 C -2,2 C 96 % 1031,9 hPa 0,0 l/m 0 min 0 min 64 W/m 6,4 km/h (2 Bft) 95,83 %
21.01.2023 12:48 -0,2 C 0,0 C -2,2 C 96 % 1031,9 hPa 0,0 l/m 0 min 0 min 62 W/m 3,2 km/h (1 Bft) 95,65 %
21.01.2023 12:50 -0,2 C 0,0 C -2,2 C 96 % 1031,9 hPa 0,0 l/m 0 min 0 min 66 W/m 3,2 km/h (1 Bft) 92,73 %
21.01.2023 12:52 -0,2 C 0,0 C -2,2 C 96 % 1031,9 hPa 0,0 l/m 0 min 0 min 65 W/m 3,2 km/h (1 Bft) 93,62 %
21.01.2023 12:54 -0,2 C 0,0 C -2,2 C 96 % 1031,9 hPa 0,0 l/m 0 min 0 min 72 W/m 12,9 km/h (3 Bft) 97,37 %
21.01.2023 12:56 -0,2 C 0,0 C -1,7 C 96 % 1031,8 hPa 0,0 l/m 0 min 0 min 88 W/m 6,4 km/h (2 Bft) 95,83 %
21.01.2023 12:58 -0,1 C 0,6 C -1,7 C 96 % 1031,8 hPa 0,0 l/m 0 min 0 min 106 W/m 6,4 km/h (2 Bft) 93,62 %
21.01.2023 13:00 -0,1 C 0,6 C -1,7 C 96 % 1031,8 hPa 0,0 l/m 0 min 0 min 122 W/m 6,4 km/h (2 Bft) 97,87 %
21.01.2023 13:02 -0,1 C 1,1 C -1,7 C 96 % 1031,7 hPa 0,0 l/m 0 min 0 min 121 W/m 3,2 km/h (1 Bft) 97,83 %
21.01.2023 13:04 0,0 C 1,1 C -1,7 C 96 % 1031,7 hPa 0,0 l/m 0 min 0 min 118 W/m 6,4 km/h (2 Bft) 97,87 %
21.01.2023 13:06 0,1 C 1,1 C -1,7 C 96 % 1031,7 hPa 0,0 l/m 0 min 0 min 125 W/m 6,4 km/h (2 Bft) 97,87 %
21.01.2023 13:08 0,1 C 1,1 C -1,7 C 96 % 1031,8 hPa 0,2 l/m 0 min 0 min 124 W/m 9,7 km/h (2 Bft) 97,87 %
21.01.2023 13:10 0,1 C 1,1 C -1,7 C 96 % 1031,7 hPa 0,0 l/m 0 min 0 min 122 W/m 9,7 km/h (2 Bft) 97,87 %
21.01.2023 13:12 0,2 C 1,1 C -1,1 C 96 % 1031,7 hPa 0,0 l/m 0 min 0 min 126 W/m 3,2 km/h (1 Bft) 97,87 %
21.01.2023 13:14 0,2 C 1,1 C -1,1 C 96 % 1031,7 hPa 0,0 l/m 0 min 0 min 116 W/m 3,2 km/h (1 Bft) 97,87 %
21.01.2023 13:16 0,3 C 1,1 C -1,1 C 96 % 1031,6 hPa 0,0 l/m 0 min 0 min 116 W/m 6,4 km/h (2 Bft) 97,83 %
21.01.2023 13:18 0,3 C 1,1 C -1,1 C 96 % 1031,6 hPa 0,0 l/m 0 min 0 min 110 W/m 9,7 km/h (2 Bft) 97,87 %
21.01.2023 13:20 0,3 C 1,1 C -1,1 C 96 % 1031,6 hPa 0,0 l/m 0 min 0 min 113 W/m 9,7 km/h (2 Bft) 97,87 %
21.01.2023 13:22 0,4 C 1,1 C -1,1 C 96 % 1031,6 hPa 0,0 l/m 0 min 0 min 108 W/m 9,7 km/h (2 Bft) 97,87 %
21.01.2023 13:24 0,4 C 1,1 C -1,1 C 96 % 1031,6 hPa 0,0 l/m 0 min 0 min 104 W/m 6,4 km/h (2 Bft) 97,87 %
21.01.2023 13:26 0,4 C 1,1 C -1,1 C 96 % 1031,6 hPa 0,0 l/m 0 min 0 min 115 W/m 9,7 km/h (2 Bft) 100,00 %
21.01.2023 13:28 0,5 C 1,1 C -1,1 C 96 % 1031,6 hPa 0,0 l/m 0 min 0 min 116 W/m 6,4 km/h (2 Bft) 97,83 %
21.01.2023 13:30 0,6 C 1,1 C -1,1 C 96 % 1031,7 hPa 0,0 l/m 0 min 0 min 104 W/m 9,7 km/h (2 Bft) 100,00 %
21.01.2023 13:32 0,6 C 1,1 C -1,1 C 96 % 1031,6 hPa 0,0 l/m 0 min 0 min 92 W/m 9,7 km/h (2 Bft) 100,00 %
21.01.2023 13:34 0,6 C 1,1 C -1,1 C 96 % 1031,6 hPa 0,0 l/m 0 min 0 min 92 W/m 6,4 km/h (2 Bft) 97,87 %
21.01.2023 13:36 0,6 C 1,1 C -1,1 C 96 % 1031,7 hPa 0,0 l/m 0 min 0 min 91 W/m 9,7 km/h (2 Bft) 100,00 %
21.01.2023 13:38 0,6 C 1,1 C -1,1 C 96 % 1031,7 hPa 0,0 l/m 0 min 0 min 83 W/m 12,9 km/h (3 Bft) 100,00 %
21.01.2023 13:40 0,6 C 1,1 C -1,1 C 95 % 1031,7 hPa 0,0 l/m 0 min 0 min 75 W/m 6,4 km/h (2 Bft) 100,00 %
21.01.2023 13:42 0,7 C 1,7 C -1,1 C 95 % 1031,6 hPa 0,0 l/m 0 min 0 min 80 W/m 9,7 km/h (2 Bft) 97,83 %
21.01.2023 13:44 0,8 C 1,7 C -1,1 C 95 % 1031,7 hPa 0,0 l/m 0 min 0 min 91 W/m 9,7 km/h (2 Bft) 97,87 %
21.01.2023 13:46 0,8 C 2,2 C -1,1 C 95 % 1031,6 hPa 0,0 l/m 0 min 0 min 100 W/m 9,7 km/h (2 Bft) 97,87 %
21.01.2023 13:48 0,9 C 2,2 C -1,1 C 95 % 1031,6 hPa 0,0 l/m 0 min 0 min 100 W/m 9,7 km/h (2 Bft) 97,87 %
21.01.2023 13:50 1,0 C 2,2 C -1,1 C 95 % 1031,6 hPa 0,0 l/m 0 min 0 min 98 W/m 6,4 km/h (2 Bft) 97,87 %
21.01.2023 13:52 1,1 C 2,2 C -1,1 C 95 % 1031,6 hPa 0,0 l/m 0 min 0 min 100 W/m 9,7 km/h (2 Bft) 97,87 %
21.01.2023 13:54 1,1 C 2,2 C -0,6 C 95 % 1031,6 hPa 0,0 l/m 0 min 0 min 104 W/m 6,4 km/h (2 Bft) 95,65 %
21.01.2023 13:56 1,2 C 2,2 C -0,6 C 95 % 1031,6 hPa 0,0 l/m 0 min 0 min 104 W/m 3,2 km/h (1 Bft) 95,74 %
21.01.2023 13:58 1,2 C 2,2 C -0,6 C 95 % 1031,6 hPa 0,0 l/m 0 min 0 min 104 W/m 9,7 km/h (2 Bft) 97,87 %
21.01.2023 14:00 1,3 C 2,2 C -0,6 C 94 % 1031,6 hPa 0,0 l/m 0 min 0 min 103 W/m 9,7 km/h (2 Bft) 97,87 %
21.01.2023 14:02 1,3 C 2,2 C -0,6 C 94 % 1031,6 hPa 0,0 l/m 0 min 0 min 102 W/m 12,9 km/h (3 Bft) 97,87 %
21.01.2023 14:04 1,3 C 2,2 C -0,6 C 94 % 1031,7 hPa 0,0 l/m 0 min 0 min 95 W/m 12,9 km/h (3 Bft) 97,87 %
21.01.2023 14:06 1,4 C 2,2 C -0,6 C 94 % 1031,7 hPa 0,0 l/m 0 min 0 min 91 W/m 9,7 km/h (2 Bft) 97,87 %
21.01.2023 14:08 1,4 C 2,2 C -0,6 C 94 % 1031,7 hPa 0,0 l/m 0 min 0 min 93 W/m 9,7 km/h (2 Bft) 97,83 %
21.01.2023 14:10 1,4 C 2,2 C -0,6 C 94 % 1031,6 hPa 0,0 l/m 0 min 0 min 91 W/m 9,7 km/h (2 Bft) 95,74 %
21.01.2023 14:12 1,4 C 2,2 C -0,6 C 94 % 1031,6 hPa 0,0 l/m 0 min 0 min 92 W/m 9,7 km/h (2 Bft) 97,87 %
21.01.2023 14:14 1,5 C 2,2 C -0,6 C 93 % 1031,6 hPa 0,0 l/m 0 min 0 min 90 W/m 9,7 km/h (2 Bft) 97,87 %
21.01.2023 14:16 1,5 C 2,2 C -0,6 C 93 % 1031,6 hPa 0,0 l/m 0 min 0 min 86 W/m 6,4 km/h (2 Bft) 97,87 %
21.01.2023 14:18 1,6 C 2,2 C -0,6 C 93 % 1031,6 hPa 0,0 l/m 0 min 0 min 83 W/m 6,4 km/h (2 Bft) 100,00 %
21.01.2023 14:20 1,6 C 2,2 C -0,6 C 93 % 1031,6 hPa 0,0 l/m 0 min 0 min 83 W/m 6,4 km/h (2 Bft) 100,00 %
21.01.2023 14:22 1,6 C 2,2 C -0,6 C 93 % 1031,6 hPa 0,0 l/m 0 min 0 min 83 W/m 22,5 km/h (4 Bft) 100,00 %
21.01.2023 14:24 1,6 C 2,2 C -0,6 C 92 % 1031,6 hPa 0,0 l/m 0 min 0 min 81 W/m 9,7 km/h (2 Bft) 100,00 %
21.01.2023 14:26 1,6 C 2,2 C -0,6 C 92 % 1031,6 hPa 0,0 l/m 0 min 0 min 82 W/m 9,7 km/h (2 Bft) 100,00 %
21.01.2023 14:28 1,6 C 2,2 C -0,6 C 92 % 1031,6 hPa 0,0 l/m 0 min 0 min 90 W/m 9,7 km/h (2 Bft) 97,87 %
21.01.2023 14:30 1,7 C 2,2 C -0,6 C 92 % 1031,6 hPa 0,0 l/m 0 min 0 min 89 W/m 9,7 km/h (2 Bft) 100,00 %
21.01.2023 14:32 1,7 C 2,2 C -0,6 C 92 % 1031,7 hPa 0,0 l/m 0 min 0 min 86 W/m 12,9 km/h (3 Bft) 100,00 %
21.01.2023 14:34 1,7 C 2,2 C -0,6 C 91 % 1031,7 hPa 0,0 l/m 0 min 0 min 83 W/m 16,1 km/h (3 Bft) 100,00 %
21.01.2023 14:36 1,7 C 2,2 C -0,6 C 92 % 1031,7 hPa 0,0 l/m 0 min 0 min 83 W/m 12,9 km/h (3 Bft) 100,00 %
21.01.2023 14:38 1,7 C 2,2 C -0,6 C 91 % 1031,7 hPa 0,0 l/m 0 min 0 min 84 W/m 9,7 km/h (2 Bft) 100,00 %
21.01.2023 14:40 1,7 C 2,2 C -0,6 C 91 % 1031,7 hPa 0,0 l/m 0 min 0 min 86 W/m 6,4 km/h (2 Bft) 97,87 %
21.01.2023 14:42 1,7 C 2,2 C -0,6 C 91 % 1031,7 hPa 0,0 l/m 0 min 0 min 90 W/m 9,7 km/h (2 Bft) 97,87 %
21.01.2023 14:44 1,7 C 2,2 C -0,6 C 91 % 1031,7 hPa 0,0 l/m 0 min 0 min 91 W/m 6,4 km/h (2 Bft) 100,00 %
21.01.2023 14:46 1,8 C 2,2 C -0,6 C 91 % 1031,6 hPa 0,0 l/m 0 min 0 min 87 W/m 3,2 km/h (1 Bft) 95,74 %
21.01.2023 14:48 1,8 C 2,2 C -0,6 C 91 % 1031,6 hPa 0,0 l/m 0 min 0 min 83 W/m 6,4 km/h (2 Bft) 100,00 %
21.01.2023 14:50 1,8 C 2,2 C -0,6 C 91 % 1031,7 hPa 0,0 l/m 0 min 0 min 78 W/m 9,7 km/h (2 Bft) 100,00 %
21.01.2023 14:52 1,8 C 2,2 C -0,6 C 90 % 1031,7 hPa 0,0 l/m 0 min 0 min 66 W/m 12,9 km/h (3 Bft) 100,00 %
21.01.2023 14:54 1,8 C 1,7 C -0,6 C 90 % 1031,7 hPa 0,0 l/m 0 min 0 min 61 W/m 9,7 km/h (2 Bft) 97,87 %
21.01.2023 14:56 1,8 C 2,2 C -0,6 C 90 % 1031,8 hPa 0,0 l/m 0 min 0 min 52 W/m 6,4 km/h (2 Bft) 100,00 %
21.01.2023 14:58 1,8 C 2,2 C -0,6 C 90 % 1031,8 hPa 0,0 l/m 0 min 0 min 41 W/m 12,9 km/h (3 Bft) 100,00 %
21.01.2023 15:00 1,8 C 1,7 C -0,6 C 90 % 1031,8 hPa 0,0 l/m 0 min 0 min 41 W/m 6,4 km/h (2 Bft) 100,00 %
21.01.2023 15:02 1,8 C 1,7 C -0,6 C 89 % 1031,8 hPa 0,0 l/m 0 min 0 min 40 W/m 9,7 km/h (2 Bft) 97,83 %
21.01.2023 15:04 1,8 C 1,7 C -0,6 C 90 % 1031,8 hPa 0,0 l/m 0 min 0 min 39 W/m 9,7 km/h (2 Bft) 100,00 %
21.01.2023 15:06 1,8 C 1,7 C -0,6 C 89 % 1031,8 hPa 0,0 l/m 0 min 0 min 37 W/m 9,7 km/h (2 Bft) 95,74 %
21.01.2023 15:08 1,8 C 1,7 C -0,6 C 89 % 1031,8 hPa 0,0 l/m 0 min 0 min 33 W/m 9,7 km/h (2 Bft) 100,00 %
21.01.2023 15:10 1,8 C 1,7 C -0,6 C 89 % 1031,9 hPa 0,0 l/m 0 min 0 min 26 W/m 9,7 km/h (2 Bft) 100,00 %
21.01.2023 15:12 1,8 C 1,7 C -1,1 C 89 % 1031,9 hPa 0,0 l/m 0 min 0 min 26 W/m 12,9 km/h (3 Bft) 97,87 %
21.01.2023 15:14 1,7 C 1,7 C -1,1 C 89 % 1031,9 hPa 0,0 l/m 0 min 0 min 23 W/m 6,4 km/h (2 Bft) 95,74 %
21.01.2023 15:16 1,7 C 1,7 C -1,1 C 89 % 1031,9 hPa 0,0 l/m 0 min 0 min 29 W/m 9,7 km/h (2 Bft) 95,65 %
21.01.2023 15:18 1,7 C 1,7 C -1,1 C 89 % 1031,9 hPa 0,0 l/m 0 min 0 min 31 W/m 12,9 km/h (3 Bft) 95,74 %
21.01.2023 15:20 1,7 C 1,7 C -1,1 C 89 % 1031,9 hPa 0,0 l/m 0 min 0 min 28 W/m 12,9 km/h (3 Bft) 95,74 %
21.01.2023 15:22 1,7 C 1,7 C -1,1 C 89 % 1031,9 hPa 0,0 l/m 0 min 0 min 31 W/m 12,9 km/h (3 Bft) 93,62 %
21.01.2023 15:24 1,7 C 1,7 C -1,1 C 89 % 1032,0 hPa 0,0 l/m 0 min 0 min 27 W/m 16,1 km/h (3 Bft) 95,74 %
21.01.2023 15:26 1,7 C 1,7 C -1,1 C 89 % 1032,0 hPa 0,0 l/m 0 min 0 min 20 W/m 12,9 km/h (3 Bft) 93,62 %
21.01.2023 15:28 1,7 C 1,7 C -1,1 C 89 % 1032,0 hPa 0,0 l/m 0 min 0 min 18 W/m 12,9 km/h (3 Bft) 95,74 %
21.01.2023 15:30 1,6 C 1,1 C -1,1 C 89 % 1032,0 hPa 0,0 l/m 0 min 0 min 18 W/m 12,9 km/h (3 Bft) 95,65 %
21.01.2023 15:32 1,6 C 1,1 C -1,1 C 89 % 1031,9 hPa 0,0 l/m 0 min 0 min 17 W/m 12,9 km/h (3 Bft) 93,62 %
21.01.2023 15:34 1,6 C 1,1 C -1,1 C 89 % 1032,0 hPa 0,0 l/m 0 min 0 min 19 W/m 3,2 km/h (1 Bft) 95,74 %
21.01.2023 15:36 1,6 C 1,1 C -1,1 C 89 % 1032,0 hPa 0,0 l/m 0 min 0 min 24 W/m 9,7 km/h (2 Bft) 93,62 %
21.01.2023 15:38 1,6 C 1,1 C -1,1 C 89 % 1031,9 hPa 0,0 l/m 0 min 0 min 33 W/m 19,3 km/h (3 Bft) 93,62 %
21.01.2023 15:40 1,6 C 1,1 C -1,1 C 89 % 1031,9 hPa 0,0 l/m 0 min 0 min 29 W/m 9,7 km/h (2 Bft) 51,06 %
21.01.2023 15:42 1,5 C 1,1 C -1,1 C 89 % 1032,0 hPa 0,0 l/m 0 min 0 min 18 W/m 9,7 km/h (2 Bft) 89,36 %
21.01.2023 15:44 1,5 C 1,1 C -1,1 C 89 % 1032,0 hPa 0,0 l/m 0 min 0 min 16 W/m 9,7 km/h (2 Bft) 89,13 %
21.01.2023 15:46 1,5 C 1,1 C -1,1 C 89 % 1032,0 hPa 0,0 l/m 0 min 0 min 14 W/m 6,4 km/h (2 Bft) 93,62 %
21.01.2023 15:48 1,5 C 1,1 C -1,1 C 89 % 1032,0 hPa 0,0 l/m 0 min 0 min 16 W/m 6,4 km/h (2 Bft) 91,49 %
21.01.2023 15:50 1,4 C 1,1 C -1,1 C 89 % 1032,0 hPa 0,0 l/m 0 min 0 min 16 W/m 12,9 km/h (3 Bft) 91,49 %
21.01.2023 15:52 1,4 C 1,1 C -1,1 C 89 % 1032,0 hPa 0,0 l/m 0 min 0 min 16 W/m 9,7 km/h (2 Bft) 91,49 %
21.01.2023 15:54 1,4 C 1,1 C -1,1 C 89 % 1032,0 hPa 0,0 l/m 0 min 0 min 14 W/m 12,9 km/h (3 Bft) 93,62 %
21.01.2023 15:56 1,4 C 1,1 C -1,1 C 89 % 1032,0 hPa 0,0 l/m 0 min 0 min 16 W/m 16,1 km/h (3 Bft) 93,48 %
21.01.2023 15:58 1,4 C 1,1 C -1,1 C 89 % 1032,1 hPa 0,0 l/m 0 min 0 min 14 W/m 12,9 km/h (3 Bft) 91,49 %
21.01.2023 16:00 1,4 C 1,1 C -1,1 C 89 % 1032,0 hPa 0,0 l/m 0 min 0 min 16 W/m 9,7 km/h (2 Bft) 91,49 %
21.01.2023 16:02 1,4 C 1,1 C -1,1 C 89 % 1032,0 hPa 0,0 l/m 0 min 0 min 18 W/m 6,4 km/h (2 Bft) 97,87 %
21.01.2023 16:04 1,4 C 1,1 C -1,1 C 89 % 1032,0 hPa 0,0 l/m 0 min 0 min 19 W/m 6,4 km/h (2 Bft) 95,65 %
21.01.2023 16:06 1,4 C 1,1 C -1,1 C 89 % 1032,0 hPa 0,0 l/m 0 min 0 min 20 W/m 6,4 km/h (2 Bft) 97,87 %
21.01.2023 16:08 1,4 C 1,1 C -1,1 C 89 % 1032,0 hPa 0,0 l/m 0 min 0 min 21 W/m 16,1 km/h (3 Bft) 100,00 %
21.01.2023 16:10 1,3 C 1,1 C -1,1 C 89 % 1032,2 hPa 0,0 l/m 0 min 0 min 21 W/m 12,9 km/h (3 Bft) 100,00 %
21.01.2023 16:12 1,3 C 1,1 C -1,1 C 89 % 1032,1 hPa 0,0 l/m 0 min 0 min 19 W/m 12,9 km/h (3 Bft) 100,00 %
21.01.2023 16:14 1,3 C 1,1 C -1,1 C 89 % 1032,2 hPa 0,0 l/m 0 min 0 min 18 W/m 6,4 km/h (2 Bft) 95,74 %
21.01.2023 16:16 1,3 C 1,1 C -1,1 C 89 % 1032,1 hPa 0,0 l/m 0 min 0 min 17 W/m 22,5 km/h (4 Bft) 97,87 %
21.01.2023 16:18 1,3 C 1,1 C -1,1 C 88 % 1032,1 hPa 0,0 l/m 0 min 0 min 17 W/m 19,3 km/h (3 Bft) 97,87 %
21.01.2023 16:20 1,2 C 1,1 C -1,1 C 88 % 1032,1 hPa 0,0 l/m 0 min 0 min 14 W/m 12,9 km/h (3 Bft) 100,00 %
21.01.2023 16:22 1,2 C 1,1 C -1,1 C 88 % 1032,2 hPa 0,0 l/m 0 min 0 min 17 W/m 16,1 km/h (3 Bft) 97,87 %
21.01.2023 16:24 1,2 C 1,1 C -1,1 C 88 % 1032,2 hPa 0,0 l/m 0 min 0 min 17 W/m 16,1 km/h (3 Bft) 97,83 %
21.01.2023 16:26 1,2 C 1,1 C -1,1 C 87 % 1032,2 hPa 0,0 l/m 0 min 0 min 17 W/m 16,1 km/h (3 Bft) 100,00 %
21.01.2023 16:28 1,2 C 1,1 C -1,1 C 87 % 1032,2 hPa 0,0 l/m 0 min 0 min 17 W/m 9,7 km/h (2 Bft) 100,00 %
21.01.2023 16:30 1,2 C 1,1 C -1,1 C 87 % 1032,3 hPa 0,0 l/m 0 min 0 min 15 W/m 16,1 km/h (3 Bft) 57,45 %
21.01.2023 16:32 1,2 C 1,1 C -1,1 C 86 % 1032,4 hPa 0,0 l/m 0 min 0 min 13 W/m 19,3 km/h (3 Bft) 100,00 %
21.01.2023 16:34 1,2 C 1,1 C -1,1 C 86 % 1032,3 hPa 0,0 l/m 0 min 0 min 12 W/m 19,3 km/h (3 Bft) 100,00 %
21.01.2023 16:36 1,2 C 1,1 C -1,1 C 86 % 1032,4 hPa 0,0 l/m 0 min 0 min 12 W/m 12,9 km/h (3 Bft) 100,00 %
21.01.2023 16:38 1,2 C 1,1 C -1,1 C 86 % 1032,4 hPa 0,0 l/m 0 min 0 min 12 W/m 12,9 km/h (3 Bft) 100,00 %
21.01.2023 16:40 1,2 C 1,1 C -1,1 C 86 % 1032,4 hPa 0,0 l/m 0 min 0 min 12 W/m 16,1 km/h (3 Bft) 100,00 %
21.01.2023 16:42 1,2 C 1,1 C -1,7 C 85 % 1032,4 hPa 0,0 l/m 0 min 0 min 12 W/m 12,9 km/h (3 Bft) 100,00 %
21.01.2023 16:44 1,2 C 1,1 C -1,7 C 85 % 1032,4 hPa 0,0 l/m 0 min 0 min 12 W/m 9,7 km/h (2 Bft) 100,00 %
21.01.2023 16:46 1,2 C 0,6 C -1,7 C 85 % 1032,4 hPa 0,0 l/m 0 min 0 min 12 W/m 12,9 km/h (3 Bft) 100,00 %
21.01.2023 16:48 1,1 C 0,6 C -1,7 C 85 % 1032,4 hPa 0,0 l/m 0 min 0 min 10 W/m 16,1 km/h (3 Bft) 97,87 %
21.01.2023 16:50 1,1 C 0,6 C -1,7 C 85 % 1032,5 hPa 0,0 l/m 0 min 0 min 7 W/m 16,1 km/h (3 Bft) 100,00 %
21.01.2023 16:52 1,1 C 0,6 C -1,7 C 85 % 1032,5 hPa 0,0 l/m 0 min 0 min 5 W/m 9,7 km/h (2 Bft) 97,83 %
21.01.2023 16:54 1,1 C 0,6 C -1,7 C 85 % 1032,5 hPa 0,0 l/m 0 min 0 min 5 W/m 12,9 km/h (3 Bft) 100,00 %
21.01.2023 16:56 1,1 C 0,6 C -1,7 C 85 % 1032,4 hPa 0,0 l/m 0 min 0 min 0 W/m 9,7 km/h (2 Bft) 100,00 %
21.01.2023 16:58 1,1 C 0,6 C -1,7 C 85 % 1032,5 hPa 0,0 l/m 0 min 0 min 0 W/m 9,7 km/h (2 Bft) 97,87 %
21.01.2023 17:00 1,1 C 0,6 C -1,7 C 85 % 1032,5 hPa 0,0 l/m 0 min 0 min 0 W/m 12,9 km/h (3 Bft) 100,00 %
21.01.2023 17:02 1,1 C 0,6 C -1,7 C 85 % 1032,5 hPa 0,0 l/m 0 min 0 min 0 W/m 12,9 km/h (3 Bft) 100,00 %
21.01.2023 17:04 1,1 C 0,6 C -1,7 C 85 % 1032,5 hPa 0,0 l/m 0 min 0 min 0 W/m 12,9 km/h (3 Bft) 100,00 %
21.01.2023 17:06 1,1 C 0,6 C -1,7 C 85 % 1032,6 hPa 0,0 l/m 0 min 0 min 1 W/m 12,9 km/h (3 Bft) 100,00 %
21.01.2023 17:08 1,0 C 0,6 C -1,7 C 85 % 1032,6 hPa 0,0 l/m 0 min 0 min 1 W/m 9,7 km/h (2 Bft) 100,00 %
21.01.2023 17:10 1,0 C 0,6 C -1,7 C 85 % 1032,6 hPa 0,0 l/m 0 min 0 min 0 W/m 12,9 km/h (3 Bft) 100,00 %
21.01.2023 17:12 1,0 C 0,6 C -1,7 C 85 % 1032,6 hPa 0,0 l/m 0 min 0 min 0 W/m 6,4 km/h (2 Bft) 97,87 %
21.01.2023 17:14 1,0 C 0,6 C -1,7 C 85 % 1032,5 hPa 0,0 l/m 0 min 0 min 0 W/m 9,7 km/h (2 Bft) 89,36 %
21.01.2023 17:16 1,0 C 0,6 C -1,7 C 85 % 1032,7 hPa 0,0 l/m 0 min 0 min 0 W/m 9,7 km/h (2 Bft) 92,31 %
21.01.2023 17:18 0,9 C 0,6 C -1,7 C 85 % 1032,6 hPa 0,0 l/m 0 min 0 min 0 W/m 9,7 km/h (2 Bft) 100,00 %
21.01.2023 17:20 0,9 C 0,6 C -1,7 C 85 % 1032,6 hPa 0,0 l/m 0 min 0 min 0 W/m 9,7 km/h (2 Bft) 95,65 %
21.01.2023 17:22 0,9 C 0,6 C -1,7 C 85 % 1032,6 hPa 0,0 l/m 0 min 0 min 0 W/m 6,4 km/h (2 Bft) 97,87 %
21.01.2023 17:24 0,9 C 0,6 C -1,7 C 85 % 1032,6 hPa 0,0 l/m 0 min 0 min 0 W/m 6,4 km/h (2 Bft) 93,62 %
21.01.2023 17:26 0,9 C 0,6 C -1,7 C 85 % 1032,6 hPa 0,0 l/m 0 min 0 min 0 W/m 9,7 km/h (2 Bft) 95,74 %
21.01.2023 17:28 0,9 C 0,6 C -1,7 C 85 % 1032,6 hPa 0,0 l/m 0 min 0 min 0 W/m 6,4 km/h (2 Bft) 97,87 %
21.01.2023 17:30 0,9 C 0,6 C -1,7 C 85 % 1032,6 hPa 0,0 l/m 0 min 0 min 0 W/m 6,4 km/h (2 Bft) 93,62 %
21.01.2023 17:32 0,9 C 0,6 C -1,7 C 85 % 1032,6 hPa 0,0 l/m 0 min 0 min 0 W/m 6,4 km/h (2 Bft) 93,62 %
21.01.2023 17:34 0,9 C 0,6 C -1,7 C 85 % 1032,6 hPa 0,0 l/m 0 min 0 min 0 W/m 6,4 km/h (2 Bft) 93,48 %
21.01.2023 17:36 0,9 C 0,6 C -1,7 C 85 % 1032,6 hPa 0,0 l/m 0 min 0 min 0 W/m 6,4 km/h (2 Bft) 97,87 %
21.01.2023 17:38 0,9 C 0,6 C -1,7 C 85 % 1032,7 hPa 0,0 l/m 0 min 0 min 0 W/m 9,7 km/h (2 Bft) 97,87 %
21.01.2023 17:40 0,9 C 0,6 C -1,7 C 85 % 1032,7 hPa 0,0 l/m 0 min 0 min 0 W/m 6,4 km/h (2 Bft) 97,87 %
21.01.2023 17:42 0,8 C 0,6 C -1,7 C 85 % 1032,7 hPa 0,0 l/m 0 min 0 min 0 W/m 6,4 km/h (2 Bft) 93,62 %
21.01.2023 17:44 0,9 C 0,6 C -1,7 C 85 % 1032,7 hPa 0,0 l/m 0 min 0 min 0 W/m 9,7 km/h (2 Bft) 95,74 %
21.01.2023 17:46 0,8 C 0,6 C -1,7 C 85 % 1032,7 hPa 0,0 l/m 0 min 0 min 0 W/m 6,4 km/h (2 Bft) 95,65 %
21.01.2023 17:48 0,8 C 0,6 C -1,7 C 85 % 1032,6 hPa 0,0 l/m 0 min 0 min 0 W/m 9,7 km/h (2 Bft) 97,87 %
21.01.2023 17:50 0,8 C 0,6 C -1,7 C 85 % 1032,6 hPa 0,0 l/m 0 min 0 min 0 W/m 3,2 km/h (1 Bft) 93,62 %
21.01.2023 17:52 0,9 C 0,6 C -1,7 C 85 % 1032,6 hPa 0,0 l/m 0 min 0 min 0 W/m 9,7 km/h (2 Bft) 95,74 %
21.01.2023 17:54 0,9 C 0,6 C -1,7 C 85 % 1032,6 hPa 0,0 l/m 0 min 0 min 0 W/m 6,4 km/h (2 Bft) 97,87 %
21.01.2023 17:56 0,9 C 0,6 C -1,7 C 85 % 1032,6 hPa 0,0 l/m 0 min 0 min 0 W/m 3,2 km/h (1 Bft) 89,36 %
21.01.2023 17:58 0,8 C 0,6 C -1,7 C 85 % 1032,7 hPa 0,0 l/m 0 min 0 min 0 W/m 6,4 km/h (2 Bft) 97,87 %
21.01.2023 18:00 0,9 C 0,6 C -1,7 C 85 % 1032,7 hPa 0,0 l/m 0 min 0 min 0 W/m 9,7 km/h (2 Bft) 97,83 %
21.01.2023 18:02 0,9 C 0,6 C -1,7 C 86 % 1032,7 hPa 0,0 l/m 0 min 0 min 0 W/m 6,4 km/h (2 Bft) 95,74 %
21.01.2023 18:04 0,9 C 0,6 C -1,7 C 86 % 1032,7 hPa 0,0 l/m 0 min 0 min 0 W/m 6,4 km/h (2 Bft) 95,74 %
21.01.2023 18:07 0,9 C 0,6 C -1,7 C 86 % 1032,7 hPa 0,0 l/m 0 min 0 min 0 W/m 6,4 km/h (2 Bft) 97,18 %
21.01.2023 18:08 0,9 C 0,6 C -1,7 C 86 % 1032,7 hPa 0,0 l/m 0 min 0 min 0 W/m 3,2 km/h (1 Bft) 95,83 %
21.01.2023 18:10 0,9 C 0,6 C -1,7 C 86 % 1032,7 hPa 0,0 l/m 0 min 0 min 0 W/m 6,4 km/h (2 Bft) 95,74 %
21.01.2023 18:12 0,9 C 0,6 C -2,2 C 86 % 1032,7 hPa 0,0 l/m 0 min 0 min 0 W/m 6,4 km/h (2 Bft) 87,23 %
21.01.2023 18:14 0,9 C 0,6 C -2,2 C 86 % 1032,7 hPa 0,0 l/m 0 min 0 min 0 W/m 6,4 km/h (2 Bft) 97,83 %
21.01.2023 18:16 0,9 C 0,6 C -2,2 C 86 % 1032,7 hPa 0,0 l/m 0 min 0 min 0 W/m 6,4 km/h (2 Bft) 95,74 %
21.01.2023 18:18 0,9 C 0,6 C -2,2 C 86 % 1032,7 hPa 0,0 l/m 0 min 0 min 0 W/m 9,7 km/h (2 Bft) 97,87 %
21.01.2023 18:20 0,9 C 0,6 C -2,2 C 86 % 1032,7 hPa 0,0 l/m 0 min 0 min 0 W/m 6,4 km/h (2 Bft) 97,87 %
21.01.2023 18:22 0,9 C 0,6 C -2,2 C 86 % 1032,7 hPa 0,0 l/m 0 min 0 min 0 W/m 6,4 km/h (2 Bft) 95,74 %
21.01.2023 18:24 0,9 C 0,6 C -2,2 C 86 % 1032,7 hPa 0,0 l/m 0 min 0 min 0 W/m 6,4 km/h (2 Bft) 95,74 %
21.01.2023 18:26 0,9 C 0,6 C -2,2 C 86 % 1032,7 hPa 0,0 l/m 0 min 0 min 0 W/m 3,2 km/h (1 Bft) 93,62 %
21.01.2023 18:28 0,8 C 0,6 C -2,2 C 86 % 1032,7 hPa 0,0 l/m 0 min 0 min 0 W/m 9,7 km/h (2 Bft) 91,30 %
21.01.2023 18:30 0,8 C 0,6 C -2,2 C 86 % 1032,7 hPa 0,0 l/m 0 min 0 min 0 W/m 6,4 km/h (2 Bft) 91,49 %
21.01.2023 18:32 0,8 C 0,6 C -2,2 C 86 % 1032,7 hPa 0,0 l/m 0 min 0 min 0 W/m 6,4 km/h (2 Bft) 93,62 %
21.01.2023 18:34 0,8 C 0,6 C -2,2 C 86 % 1032,7 hPa 0,0 l/m 0 min 0 min 0 W/m 12,9 km/h (3 Bft) 93,62 %
21.01.2023 18:36 0,8 C 0,6 C -2,2 C 86 % 1032,8 hPa 0,0 l/m 0 min 0 min 0 W/m 6,4 km/h (2 Bft) 93,62 %
21.01.2023 18:38 0,8 C 0,6 C -2,2 C 86 % 1032,8 hPa 0,0 l/m 0 min 0 min 0 W/m 6,4 km/h (2 Bft) 95,74 %
21.01.2023 18:40 0,8 C 0,0 C -2,2 C 85 % 1032,8 hPa 0,0 l/m 0 min 0 min 0 W/m 3,2 km/h (1 Bft) 97,83 %
21.01.2023 18:42 0,8 C 0,0 C -2,2 C 85 % 1032,8 hPa 0,0 l/m 0 min 0 min 0 W/m 9,7 km/h (2 Bft) 95,74 %
21.01.2023 18:44 0,7 C 0,0 C -2,2 C 85 % 1032,7 hPa 0,0 l/m 0 min 0 min 0 W/m 6,4 km/h (2 Bft) 95,74 %
21.01.2023 18:46 0,7 C 0,0 C -2,2 C 85 % 1032,7 hPa 0,0 l/m 0 min 0 min 0 W/m 6,4 km/h (2 Bft) 97,87 %
21.01.2023 18:48 0,7 C 0,0 C -2,2 C 85 % 1032,8 hPa 0,0 l/m 0 min 0 min 0 W/m 6,4 km/h (2 Bft) 97,87 %
21.01.2023 18:50 0,7 C 0,0 C -2,2 C 84 % 1032,8 hPa 0,0 l/m 0 min 0 min 0 W/m 12,9 km/h (3 Bft) 97,87 %
21.01.2023 18:52 0,6 C 0,0 C -2,2 C 84 % 1032,8 hPa 0,0 l/m 0 min 0 min 0 W/m 9,7 km/h (2 Bft) 95,74 %
21.01.2023 18:54 0,6 C 0,0 C -2,2 C 84 % 1032,8 hPa 0,0 l/m 0 min 0 min 0 W/m 12,9 km/h (3 Bft) 97,83 %
21.01.2023 18:56 0,6 C 0,0 C -2,2 C 84 % 1032,7 hPa 0,0 l/m 0 min 0 min 0 W/m 6,4 km/h (2 Bft) 100,00 %
21.01.2023 18:58 0,6 C 0,0 C -2,2 C 84 % 1032,8 hPa 0,0 l/m 0 min 0 min 0 W/m 6,4 km/h (2 Bft) 95,74 %
21.01.2023 19:00 0,6 C 0,0 C -2,2 C 83 % 1032,8 hPa 0,0 l/m 0 min 0 min 0 W/m 3,2 km/h (1 Bft) 97,87 %
21.01.2023 19:02 0,6 C 0,0 C -2,2 C 83 % 1032,8 hPa 0,0 l/m 0 min 0 min 0 W/m 6,4 km/h (2 Bft) 95,74 %
21.01.2023 19:04 0,6 C 0,0 C -2,2 C 83 % 1032,9 hPa 0,0 l/m 0 min 0 min 0 W/m 6,4 km/h (2 Bft) 97,87 %
21.01.2023 19:06 0,6 C 0,0 C -2,2 C 83 % 1032,9 hPa 0,0 l/m 0 min 0 min 0 W/m 9,7 km/h (2 Bft) 97,87 %
21.01.2023 19:08 0,6 C 0,0 C -2,2 C 83 % 1032,8 hPa 0,0 l/m 0 min 0 min 0 W/m 6,4 km/h (2 Bft) 97,83 %
21.01.2023 19:10 0,6 C 0,0 C -2,2 C 83 % 1032,8 hPa 0,0 l/m 0 min 0 min 0 W/m 6,4 km/h (2 Bft) 93,62 %
21.01.2023 19:12 0,6 C 0,0 C -2,2 C 83 % 1032,9 hPa 0,0 l/m 0 min 0 min 0 W/m 9,7 km/h (2 Bft) 95,74 %
21.01.2023 19:14 0,6 C 0,0 C -2,2 C 83 % 1032,9 hPa 0,0 l/m 0 min 0 min 0 W/m 6,4 km/h (2 Bft) 100,00 %
21.01.2023 19:16 0,6 C 0,0 C -2,2 C 83 % 1032,8 hPa 0,0 l/m 0 min 0 min 0 W/m 6,4 km/h (2 Bft) 95,74 %
21.01.2023 19:18 0,6 C 0,0 C -2,8 C 83 % 1032,9 hPa 0,0 l/m 0 min 0 min 0 W/m 6,4 km/h (2 Bft) 97,87 %
21.01.2023 19:20 0,6 C 0,0 C -2,8 C 83 % 1032,9 hPa 0,0 l/m 0 min 0 min 0 W/m 6,4 km/h (2 Bft) 97,87 %
21.01.2023 19:22 0,6 C 0,0 C -2,8 C 83 % 1032,9 hPa 0,0 l/m 0 min 0 min 0 W/m 6,4 km/h (2 Bft) 93,48 %
21.01.2023 19:24 0,6 C 0,0 C -2,8 C 84 % 1032,9 hPa 0,0 l/m 0 min 0 min 0 W/m 6,4 km/h (2 Bft) 97,87 %
21.01.2023 19:26 0,6 C 0,0 C -2,8 C 84 % 1033,0 hPa 0,0 l/m 0 min 0 min 0 W/m 6,4 km/h (2 Bft) 97,87 %
21.01.2023 19:28 0,6 C 0,0 C -2,8 C 84 % 1032,9 hPa 0,0 l/m 0 min 0 min 0 W/m 3,2 km/h (1 Bft) 93,62 %
21.01.2023 19:30 0,6 C 0,0 C -2,8 C 84 % 1033,0 hPa 0,0 l/m 0 min 0 min 0 W/m 3,2 km/h (1 Bft) 95,74 %
21.01.2023 19:32 0,6 C 0,0 C -2,8 C 84 % 1033,0 hPa 0,0 l/m 0 min 0 min 0 W/m 12,9 km/h (3 Bft) 97,87 %
21.01.2023 19:34 0,6 C 0,0 C -2,8 C 84 % 1032,9 hPa 0,0 l/m 0 min 0 min 0 W/m 6,4 km/h (2 Bft) 89,36 %
21.01.2023 19:36 0,6 C 0,0 C -2,8 C 84 % 1033,0 hPa 0,0 l/m 0 min 0 min 0 W/m 6,4 km/h (2 Bft) 97,83 %
21.01.2023 19:38 0,6 C 0,0 C -2,2 C 84 % 1033,0 hPa 0,0 l/m 0 min 0 min 0 W/m 9,7 km/h (2 Bft) 97,87 %
21.01.2023 19:40 0,6 C 0,0 C -2,8 C 84 % 1033,0 hPa 0,0 l/m 0 min 0 min 0 W/m 12,9 km/h (3 Bft) 95,74 %
21.01.2023 19:42 0,6 C 0,0 C -2,8 C 84 % 1033,0 hPa 0,0 l/m 0 min 0 min 0 W/m 6,4 km/h (2 Bft) 97,87 %
21.01.2023 19:44 0,6 C 0,0 C -2,8 C 84 % 1032,9 hPa 0,0 l/m 0 min 0 min 0 W/m 9,7 km/h (2 Bft) 100,00 %
21.01.2023 19:46 0,5 C 0,0 C -2,8 C 84 % 1033,0 hPa 0,0 l/m 0 min 0 min 0 W/m 3,2 km/h (1 Bft) 97,87 %
21.01.2023 19:48 0,6 C 0,0 C -2,8 C 84 % 1032,9 hPa 0,0 l/m 0 min 0 min 0 W/m 6,4 km/h (2 Bft) 97,87 %
21.01.2023 19:50 0,5 C 0,0 C -2,8 C 85 % 1033,0 hPa 0,0 l/m 0 min 0 min 0 W/m 6,4 km/h (2 Bft) 100,00 %
21.01.2023 19:52 0,6 C 0,0 C -2,8 C 85 % 1032,9 hPa 0,0 l/m 0 min 0 min 0 W/m 9,7 km/h (2 Bft) 97,87 %
21.01.2023 19:54 0,5 C 0,0 C -2,8 C 85 % 1032,9 hPa 0,0 l/m 0 min 0 min 0 W/m 9,7 km/h (2 Bft) 100,00 %
21.01.2023 19:56 0,5 C 0,0 C -2,8 C 85 % 1032,9 hPa 0,0 l/m 0 min 0 min 0 W/m 6,4 km/h (2 Bft) 100,00 %
21.01.2023 19:58 0,5 C -0,6 C -2,8 C 85 % 1032,9 hPa 0,0 l/m 0 min 0 min 0 W/m 6,4 km/h (2 Bft) 97,87 %
21.01.2023 20:00 0,5 C -0,6 C -2,8 C 85 % 1032,8 hPa 0,0 l/m 0 min 0 min 0 W/m 9,7 km/h (2 Bft) 100,00 %
21.01.2023 20:02 0,5 C -0,6 C -2,8 C 85 % 1032,9 hPa 0,0 l/m 0 min 0 min 0 W/m 12,9 km/h (3 Bft) 100,00 %
21.01.2023 20:04 0,5 C 0,0 C -2,8 C 85 % 1032,9 hPa 0,0 l/m 0 min 0 min 0 W/m 9,7 km/h (2 Bft) 97,87 %
21.01.2023 20:06 0,5 C -0,6 C -2,8 C 85 % 1032,9 hPa 0,0 l/m 0 min 0 min 0 W/m 12,9 km/h (3 Bft) 95,74 %
21.01.2023 20:08 0,5 C -0,6 C -2,8 C 85 % 1032,9 hPa 0,0 l/m 0 min 0 min 0 W/m 6,4 km/h (2 Bft) 98,00 %
21.01.2023 20:10 0,4 C -0,6 C -2,8 C 86 % 1032,9 hPa 0,0 l/m 0 min 0 min 0 W/m 6,4 km/h (2 Bft) 97,14 %
21.01.2023 20:12 0,4 C -0,6 C -2,8 C 86 % 1032,8 hPa 0,0 l/m 0 min 0 min 0 W/m 6,4 km/h (2 Bft) 97,87 %
21.01.2023 20:14 0,4 C -0,6 C -2,8 C 86 % 1032,8 hPa 0,0 l/m 0 min 0 min 0 W/m 6,4 km/h (2 Bft) 100,00 %
21.01.2023 20:16 0,4 C 0,0 C -2,8 C 86 % 1032,8 hPa 0,0 l/m 0 min 0 min 0 W/m 9,7 km/h (2 Bft) 95,65 %
21.01.2023 20:18 0,4 C -0,6 C -2,8 C 86 % 1032,8 hPa 0,0 l/m 0 min 0 min 0 W/m 9,7 km/h (2 Bft) 97,87 %
21.01.2023 20:20 0,4 C 0,0 C -2,8 C 86 % 1032,8 hPa 0,0 l/m 0 min 0 min 0 W/m 9,7 km/h (2 Bft) 100,00 %
21.01.2023 20:22 0,4 C -0,6 C -2,8 C 86 % 1032,8 hPa 0,0 l/m 0 min 0 min 0 W/m 12,9 km/h (3 Bft) 100,00 %
21.01.2023 20:24 0,4 C -0,6 C -2,8 C 86 % 1032,8 hPa 0,0 l/m 0 min 0 min 0 W/m 12,9 km/h (3 Bft) 97,87 %
21.01.2023 20:26 0,4 C -0,6 C -2,8 C 86 % 1032,8 hPa 0,0 l/m 0 min 0 min 0 W/m 9,7 km/h (2 Bft) 97,87 %
21.01.2023 20:28 0,4 C -0,6 C -2,8 C 86 % 1032,8 hPa 0,0 l/m 0 min 0 min 0 W/m 12,9 km/h (3 Bft) 97,83 %
21.01.2023 20:30 0,4 C -0,6 C -2,8 C 86 % 1032,8 hPa 0,0 l/m 0 min 0 min 0 W/m 6,4 km/h (2 Bft) 97,87 %
21.01.2023 20:32 0,4 C -0,6 C -2,8 C 86 % 1032,8 hPa 0,0 l/m 0 min 0 min 0 W/m 6,4 km/h (2 Bft) 97,87 %
21.01.2023 20:34 0,3 C -0,6 C -2,8 C 86 % 1032,8 hPa 0,0 l/m 0 min 0 min 0 W/m 9,7 km/h (2 Bft) 97,87 %
21.01.2023 20:36 0,3 C -0,6 C -2,8 C 87 % 1032,9 hPa 0,0 l/m 0 min 0 min 0 W/m 9,7 km/h (2 Bft) 97,87 %
21.01.2023 20:38 0,3 C -0,6 C -2,8 C 87 % 1032,8 hPa 0,0 l/m 0 min 0 min 0 W/m 9,7 km/h (2 Bft) 97,87 %
21.01.2023 20:40 0,3 C -0,6 C -2,8 C 87 % 1032,8 hPa 0,0 l/m 0 min 0 min 0 W/m 16,1 km/h (3 Bft) 97,87 %
21.01.2023 20:42 0,3 C -0,6 C -2,8 C 87 % 1032,8 hPa 0,0 l/m 0 min 0 min 0 W/m 12,9 km/h (3 Bft) 97,83 %
21.01.2023 20:44 0,3 C -0,6 C -2,8 C 87 % 1032,8 hPa 0,0 l/m 0 min 0 min 0 W/m 9,7 km/h (2 Bft) 97,87 %
21.01.2023 20:46 0,3 C -0,6 C -2,8 C 87 % 1032,8 hPa 0,0 l/m 0 min 0 min 0 W/m 9,7 km/h (2 Bft) 97,87 %
21.01.2023 20:48 0,3 C -0,6 C -2,8 C 87 % 1032,8 hPa 0,0 l/m 0 min 0 min 0 W/m 9,7 km/h (2 Bft) 95,74 %
21.01.2023 20:50 0,2 C -0,6 C -2,8 C 87 % 1032,8 hPa 0,0 l/m 0 min 0 min 0 W/m 6,4 km/h (2 Bft) 97,87 %
21.01.2023 20:52 0,2 C -0,6 C -2,8 C 87 % 1032,7 hPa 0,0 l/m 0 min 0 min 0 W/m 9,7 km/h (2 Bft) 97,87 %
21.01.2023 20:54 0,2 C -0,6 C -2,8 C 88 % 1032,7 hPa 0,0 l/m 0 min 0 min 0 W/m 6,4 km/h (2 Bft) 97,83 %
21.01.2023 20:56 0,2 C -0,6 C -2,8 C 88 % 1032,7 hPa 0,0 l/m 0 min 0 min 0 W/m 6,4 km/h (2 Bft) 95,74 %
21.01.2023 20:58 0,2 C -0,6 C -2,8 C 88 % 1032,7 hPa 0,0 l/m 0 min 0 min 0 W/m 6,4 km/h (2 Bft) 95,74 %
21.01.2023 21:00 0,2 C -0,6 C -2,8 C 88 % 1032,8 hPa 0,0 l/m 0 min 0 min 0 W/m 9,7 km/h (2 Bft) 97,87 %
21.01.2023 21:02 0,2 C -0,6 C -2,8 C 88 % 1032,8 hPa 0,0 l/m 0 min 0 min 0 W/m 9,7 km/h (2 Bft) 100,00 %
21.01.2023 21:04 0,2 C -0,6 C -2,8 C 88 % 1032,8 hPa 0,0 l/m 0 min 0 min 0 W/m 9,7 km/h (2 Bft) 97,87 %
21.01.2023 21:06 0,2 C -0,6 C -2,8 C 88 % 1032,8 hPa 0,0 l/m 0 min 0 min 0 W/m 9,7 km/h (2 Bft) 96,55 %
21.01.2023 21:08 0,2 C -0,6 C -2,8 C 88 % 1032,8 hPa 0,0 l/m 0 min 0 min 0 W/m 9,7 km/h (2 Bft) 97,14 %
21.01.2023 21:10 0,2 C -0,6 C -2,8 C 88 % 1032,7 hPa 0,0 l/m 0 min 0 min 0 W/m 12,9 km/h (3 Bft) 95,74 %
21.01.2023 21:12 0,2 C -0,6 C -2,8 C 88 % 1032,8 hPa 0,0 l/m 0 min 0 min 0 W/m 9,7 km/h (2 Bft) 97,87 %
21.01.2023 21:14 0,2 C -0,6 C -2,8 C 89 % 1032,8 hPa 0,0 l/m 0 min 0 min 0 W/m 9,7 km/h (2 Bft) 97,87 %
21.01.2023 21:16 0,2 C -0,6 C -2,8 C 89 % 1032,8 hPa 0,0 l/m 0 min 0 min 0 W/m 12,9 km/h (3 Bft) 97,87 %
21.01.2023 21:18 0,2 C -0,6 C -2,8 C 89 % 1032,7 hPa 0,0 l/m 0 min 0 min 0 W/m 9,7 km/h (2 Bft) 97,87 %
21.01.2023 21:20 0,2 C -0,6 C -2,8 C 89 % 1032,7 hPa 0,0 l/m 0 min 0 min 0 W/m 6,4 km/h (2 Bft) 97,87 %
21.01.2023 21:22 0,2 C -0,6 C -2,8 C 89 % 1032,8 hPa 0,0 l/m 0 min 0 min 0 W/m 9,7 km/h (2 Bft) 97,83 %
21.01.2023 21:24 0,2 C -0,6 C -2,8 C 89 % 1032,7 hPa 0,0 l/m 0 min 0 min 0 W/m 6,4 km/h (2 Bft) 97,87 %
21.01.2023 21:26 0,2 C -0,6 C -2,8 C 89 % 1032,7 hPa 0,0 l/m 0 min 0 min 0 W/m 9,7 km/h (2 Bft) 97,87 %
21.01.2023 21:28 0,2 C -0,6 C -2,8 C 89 % 1032,8 hPa 0,0 l/m 0 min 0 min 0 W/m 6,4 km/h (2 Bft) 95,74 %
21.01.2023 21:30 0,2 C -0,6 C -2,8 C 90 % 1032,8 hPa 0,0 l/m 0 min 0 min 0 W/m 9,7 km/h (2 Bft) 95,74 %
21.01.2023 21:32 0,2 C -0,6 C -2,8 C 90 % 1032,8 hPa 0,0 l/m 0 min 0 min 0 W/m 9,7 km/h (2 Bft) 95,74 %
21.01.2023 21:34 0,2 C -0,6 C -2,8 C 90 % 1032,8 hPa 0,0 l/m 0 min 0 min 0 W/m 9,7 km/h (2 Bft) 93,62 %
21.01.2023 21:36 0,2 C -0,6 C -2,8 C 90 % 1032,8 hPa 0,0 l/m 0 min 0 min 0 W/m 16,1 km/h (3 Bft) 97,83 %
21.01.2023 21:38 0,2 C -0,6 C -2,8 C 90 % 1032,7 hPa 0,0 l/m 0 min 0 min 0 W/m 16,1 km/h (3 Bft) 95,74 %
21.01.2023 21:40 0,2 C -0,6 C -2,8 C 90 % 1032,8 hPa 0,0 l/m 0 min 0 min 0 W/m 12,9 km/h (3 Bft) 97,87 %
21.01.2023 21:42 0,2 C -0,6 C -2,8 C 90 % 1032,7 hPa 0,0 l/m 0 min 0 min 0 W/m 6,4 km/h (2 Bft) 95,74 %
21.01.2023 21:44 0,2 C -0,6 C -2,8 C 90 % 1032,7 hPa 0,0 l/m 0 min 0 min 0 W/m 9,7 km/h (2 Bft) 95,74 %
21.01.2023 21:46 0,2 C -0,6 C -2,8 C 90 % 1032,8 hPa 0,0 l/m 0 min 0 min 0 W/m 6,4 km/h (2 Bft) 45,00 %
21.01.2023 21:48 0,2 C -0,6 C -2,8 C 90 % 1032,7 hPa 0,0 l/m 0 min 0 min 0 W/m 9,7 km/h (2 Bft) 97,83 %
21.01.2023 21:50 0,2 C -0,6 C -2,8 C 91 % 1032,7 hPa 0,0 l/m 0 min 0 min 0 W/m 16,1 km/h (3 Bft) 93,62 %
21.01.2023 21:52 0,2 C -0,6 C -2,8 C 91 % 1032,7 hPa 0,0 l/m 0 min 0 min 0 W/m 12,9 km/h (3 Bft) 97,87 %
21.01.2023 21:54 0,2 C -0,6 C -2,8 C 91 % 1032,6 hPa 0,0 l/m 0 min 0 min 0 W/m 12,9 km/h (3 Bft) 95,74 %
21.01.2023 21:56 0,2 C -0,6 C -2,8 C 91 % 1032,7 hPa 0,0 l/m 0 min 0 min 0 W/m 9,7 km/h (2 Bft) 95,74 %
21.01.2023 21:58 0,2 C -0,6 C -2,8 C 91 % 1032,7 hPa 0,0 l/m 0 min 0 min 0 W/m 9,7 km/h (2 Bft) 97,87 %
21.01.2023 22:00 0,2 C -0,6 C -2,8 C 91 % 1032,7 hPa 0,0 l/m 0 min 0 min 0 W/m 12,9 km/h (3 Bft) 95,74 %
21.01.2023 22:02 0,2 C -0,6 C -2,8 C 91 % 1032,7 hPa 0,0 l/m 0 min 0 min 0 W/m 19,3 km/h (3 Bft) 89,13 %
21.01.2023 22:04 0,2 C -0,6 C -2,8 C 91 % 1032,6 hPa 0,0 l/m 0 min 0 min 0 W/m 16,1 km/h (3 Bft) 97,87 %
21.01.2023 22:06 0,2 C -0,6 C -2,8 C 91 % 1032,6 hPa 0,0 l/m 0 min 0 min 0 W/m 9,7 km/h (2 Bft) 93,22 %
21.01.2023 22:08 0,2 C -0,6 C -2,8 C 92 % 1032,6 hPa 0,0 l/m 0 min 0 min 0 W/m 12,9 km/h (3 Bft) 97,14 %
21.01.2023 22:10 0,2 C -0,6 C -2,8 C 92 % 1032,6 hPa 0,0 l/m 0 min 0 min 0 W/m 12,9 km/h (3 Bft) 97,87 %
21.01.2023 22:12 0,2 C -0,6 C -2,8 C 92 % 1032,6 hPa 0,0 l/m 0 min 0 min 0 W/m 12,9 km/h (3 Bft) 97,87 %
21.01.2023 22:14 0,2 C -0,6 C -2,8 C 92 % 1032,6 hPa 0,0 l/m 0 min 0 min 0 W/m 12,9 km/h (3 Bft) 95,74 %
21.01.2023 22:16 0,2 C -0,6 C -2,8 C 92 % 1032,7 hPa 0,0 l/m 0 min 0 min 0 W/m 12,9 km/h (3 Bft) 95,65 %
21.01.2023 22:18 0,2 C -0,6 C -2,8 C 92 % 1032,8 hPa 0,0 l/m 0 min 0 min 0 W/m 9,7 km/h (2 Bft) 100,00 %
21.01.2023 22:20 0,2 C -0,6 C -2,8 C 92 % 1032,7 hPa 0,0 l/m 0 min 0 min 0 W/m 16,1 km/h (3 Bft) 100,00 %
21.01.2023 22:22 0,2 C -0,6 C -2,8 C 92 % 1032,7 hPa 0,0 l/m 0 min 0 min 0 W/m 9,7 km/h (2 Bft) 95,74 %
21.01.2023 22:24 0,2 C -0,6 C -2,8 C 92 % 1032,7 hPa 0,0 l/m 0 min 0 min 0 W/m 12,9 km/h (3 Bft) 98,11 %
21.01.2023 22:26 0,2 C -0,6 C -2,8 C 92 % 1032,7 hPa 0,0 l/m 0 min 0 min 0 W/m 12,9 km/h (3 Bft) 98,00 %
21.01.2023 22:28 0,1 C -0,6 C -2,8 C 92 % 1032,7 hPa 0,0 l/m 0 min 0 min 0 W/m 12,9 km/h (3 Bft) 97,37 %
21.01.2023 22:30 0,1 C -0,6 C -2,8 C 92 % 1032,7 hPa 0,0 l/m 0 min 0 min 0 W/m 12,9 km/h (3 Bft) 97,83 %
21.01.2023 22:32 0,1 C -0,6 C -2,8 C 92 % 1032,7 hPa 0,0 l/m 0 min 0 min 0 W/m 9,7 km/h (2 Bft) 97,87 %
21.01.2023 22:34 0,1 C -0,6 C -2,8 C 93 % 1032,6 hPa 0,0 l/m 0 min 0 min 0 W/m 16,1 km/h (3 Bft) 100,00 %
21.01.2023 22:36 0,1 C -0,6 C -2,8 C 93 % 1032,6 hPa 0,0 l/m 0 min 0 min 0 W/m 12,9 km/h (3 Bft) 97,87 %
21.01.2023 22:38 0,1 C -0,6 C -2,8 C 93 % 1032,7 hPa 0,0 l/m 0 min 0 min 0 W/m 12,9 km/h (3 Bft) 100,00 %
21.01.2023 22:40 0,1 C -0,6 C -2,8 C 93 % 1032,6 hPa 0,0 l/m 0 min 0 min 0 W/m 6,4 km/h (2 Bft) 100,00 %
21.01.2023 22:42 0,1 C -0,6 C -2,8 C 93 % 1032,7 hPa 0,0 l/m 0 min 0 min 0 W/m 3,2 km/h (1 Bft) 100,00 %
21.01.2023 22:44 0,1 C -0,6 C -2,8 C 93 % 1032,6 hPa 0,0 l/m 0 min 0 min 0 W/m 16,1 km/h (3 Bft) 97,87 %
21.01.2023 22:46 0,1 C -0,6 C -2,8 C 93 % 1032,7 hPa 0,0 l/m 0 min 0 min 0 W/m 9,7 km/h (2 Bft) 97,87 %
21.01.2023 22:48 0,1 C -0,6 C -2,8 C 93 % 1032,7 hPa 0,0 l/m 0 min 0 min 0 W/m 9,7 km/h (2 Bft) 95,74 %
21.01.2023 22:50 0,1 C -0,6 C -2,8 C 93 % 1032,7 hPa 0,0 l/m 0 min 0 min 0 W/m 9,7 km/h (2 Bft) 95,74 %
21.01.2023 22:52 0,1 C -0,6 C -2,8 C 93 % 1032,7 hPa 0,0 l/m 0 min 0 min 0 W/m 9,7 km/h (2 Bft) 95,74 %
21.01.2023 22:54 0,1 C -0,6 C -2,8 C 93 % 1032,7 hPa 0,0 l/m 0 min 0 min 0 W/m 9,7 km/h (2 Bft) 97,87 %
21.01.2023 22:56 0,1 C -0,6 C -2,8 C 93 % 1032,6 hPa 0,0 l/m 0 min 0 min 0 W/m 9,7 km/h (2 Bft) 95,65 %
21.01.2023 22:58 0,1 C -0,6 C -2,8 C 93 % 1032,6 hPa 0,0 l/m 0 min 0 min 0 W/m 9,7 km/h (2 Bft) 95,74 %
21.01.2023 23:00 0,1 C -0,6 C -2,8 C 93 % 1032,5 hPa 0,0 l/m 0 min 0 min 0 W/m 6,4 km/h (2 Bft) 95,74 %
21.01.2023 23:02 0,1 C -1,1 C -2,8 C 93 % 1032,5 hPa 0,0 l/m 0 min 0 min 0 W/m 6,4 km/h (2 Bft) 91,49 %
21.01.2023 23:04 0,1 C -1,1 C -2,8 C 93 % 1032,5 hPa 0,0 l/m 0 min 0 min 0 W/m 16,1 km/h (3 Bft) 95,83 %
21.01.2023 23:06 0,0 C -1,1 C -2,8 C 93 % 1032,5 hPa 0,0 l/m 0 min 0 min 0 W/m 6,4 km/h (2 Bft) 95,74 %
21.01.2023 23:08 0,0 C -1,1 C -2,8 C 93 % 1032,5 hPa 0,0 l/m 0 min 0 min 0 W/m 9,7 km/h (2 Bft) 95,74 %
21.01.2023 23:10 0,0 C -1,1 C -2,8 C 93 % 1032,5 hPa 0,0 l/m 0 min 0 min 0 W/m 9,7 km/h (2 Bft) 95,65 %
21.01.2023 23:12 0,0 C -1,1 C -3,3 C 94 % 1032,6 hPa 0,0 l/m 0 min 0 min 0 W/m 9,7 km/h (2 Bft) 91,49 %
21.01.2023 23:14 -0,1 C -1,1 C -3,3 C 94 % 1032,5 hPa 0,0 l/m 0 min 0 min 0 W/m 12,9 km/h (3 Bft) 95,74 %
21.01.2023 23:16 -0,1 C -1,1 C -3,3 C 94 % 1032,5 hPa 0,0 l/m 0 min 0 min 0 W/m 9,7 km/h (2 Bft) 91,49 %
21.01.2023 23:18 -0,1 C -1,1 C -3,3 C 94 % 1032,5 hPa 0,0 l/m 0 min 0 min 0 W/m 9,7 km/h (2 Bft) 95,74 %
21.01.2023 23:20 -0,1 C -1,1 C -3,3 C 94 % 1032,5 hPa 0,0 l/m 0 min 0 min 0 W/m 6,4 km/h (2 Bft) 91,49 %
21.01.2023 23:22 -0,1 C -1,1 C -3,3 C 94 % 1032,5 hPa 0,0 l/m 0 min 0 min 0 W/m 3,2 km/h (1 Bft) 95,65 %
21.01.2023 23:24 -0,1 C -1,1 C -3,3 C 94 % 1032,5 hPa 0,0 l/m 0 min 0 min 0 W/m 6,4 km/h (2 Bft) 95,74 %
21.01.2023 23:26 -0,1 C -1,1 C -3,3 C 94 % 1032,4 hPa 0,0 l/m 0 min 0 min 0 W/m 6,4 km/h (2 Bft) 100,00 %
21.01.2023 23:28 -0,2 C -1,1 C -3,3 C 94 % 1032,5 hPa 0,0 l/m 0 min 0 min 0 W/m 6,4 km/h (2 Bft) 97,87 %
21.01.2023 23:30 -0,2 C -1,1 C -3,3 C 94 % 1032,5 hPa 0,0 l/m 0 min 0 min 0 W/m 12,9 km/h (3 Bft) 100,00 %
21.01.2023 23:32 -0,2 C -1,1 C -3,3 C 94 % 1032,5 hPa 0,0 l/m 0 min 0 min 0 W/m 6,4 km/h (2 Bft) 100,00 %
21.01.2023 23:34 -0,2 C -1,1 C -3,3 C 94 % 1032,5 hPa 0,0 l/m 0 min 0 min 0 W/m 6,4 km/h (2 Bft) 100,00 %
21.01.2023 23:36 -0,2 C -1,1 C -3,3 C 94 % 1032,5 hPa 0,0 l/m 0 min 0 min 0 W/m 9,7 km/h (2 Bft) 97,83 %
21.01.2023 23:38 -0,2 C -1,1 C -3,3 C 94 % 1032,6 hPa 0,0 l/m 0 min 0 min 0 W/m 6,4 km/h (2 Bft) 100,00 %
21.01.2023 23:40 -0,2 C -1,1 C -3,3 C 94 % 1032,6 hPa 0,0 l/m 0 min 0 min 0 W/m 12,9 km/h (3 Bft) 100,00 %
21.01.2023 23:42 -0,2 C -1,1 C -3,3 C 94 % 1032,6 hPa 0,0 l/m 0 min 0 min 0 W/m 12,9 km/h (3 Bft) 100,00 %
21.01.2023 23:44 -0,2 C -1,1 C -3,3 C 94 % 1032,5 hPa 0,0 l/m 0 min 0 min 0 W/m 12,9 km/h (3 Bft) 97,87 %
21.01.2023 23:46 -0,2 C -1,1 C -3,3 C 94 % 1032,6 hPa 0,0 l/m 0 min 0 min 0 W/m 25,7 km/h (4 Bft) 100,00 %
21.01.2023 23:48 -0,2 C -1,1 C -3,3 C 94 % 1032,5 hPa 0,0 l/m 0 min 0 min 0 W/m 19,3 km/h (3 Bft) 100,00 %
21.01.2023 23:50 -0,2 C -1,1 C -3,3 C 94 % 1032,5 hPa 0,0 l/m 0 min 0 min 0 W/m 16,1 km/h (3 Bft) 97,83 %
21.01.2023 23:52 -0,2 C -1,1 C -3,3 C 94 % 1032,5 hPa 0,0 l/m 0 min 0 min 0 W/m 16,1 km/h (3 Bft) 100,00 %
21.01.2023 23:54 -0,2 C -1,1 C -3,3 C 94 % 1032,5 hPa 0,0 l/m 0 min 0 min 0 W/m 12,9 km/h (3 Bft) 100,00 %
21.01.2023 23:56 -0,2 C -1,1 C -3,3 C 94 % 1032,5 hPa 0,0 l/m 0 min 0 min 0 W/m 12,9 km/h (3 Bft) 100,00 %
21.01.2023 23:58 -0,2 C -1,1 C -3,3 C 94 % 1032,5 hPa 0,0 l/m 0 min 0 min 0 W/m 16,1 km/h (3 Bft) 100,00 %
_ Min-Zeit 08:36 08:24 07:56 19:00 00:00 - - - - 00:46 09:44
Minimum _ -3,2 C -4,4 C -5,6 C 83 % 1023,7 hPa - - - - 0,0 km/h (0 Bft) 44,74 %
_ Max-Zeit 14:46 13:46 13:54 10:04 19:26 13:08 00:00 00:00 13:12 23:46 00:12
Maximum _ 1,8 C 2,2 C -0,6 C 97 % 1033,0 hPa 0,2 l/m 0 min 0 min 126 W/m 25,7 km/h
N-NW (4 Bft)
100,00 %
Durchschnitt _ -0,7 C -1,2 C -3,2 C 93 % 1030,3 hPa #0,2 l/m #0 min. #0 min. 51 W/m 7,4 km/h (2 Bft) 96,55 %
© 2023 W. Hausmann